<?xml version='1.0' encoding='UTF-8'?>
<gpx version="1.1" creator="https://www.komoot.de" xmlns="http://www.topografix.com/GPX/1/1" xmlns:xsi="http://www.w3.org/2001/XMLSchema-instance" xsi:schemaLocation="http://www.topografix.com/GPX/1/1 http://www.topografix.com/GPX/1/1/gpx.xsd">
  <metadata>
    <name>Gravel-Tour IV</name>
    <author>
      <link href="https://www.komoot.de">
        <text>komoot</text>
        <type>text/html</type>
      </link>
    </author>
  </metadata>
  <trk>
    <name>Gravel-Tour IV</name>
    <trkseg>
      <trkpt lat="51.658637" lon="7.251055">
        <ele>109.943862</ele>
        <time>2025-08-26T08:22:21.084Z</time>
      </trkpt>
      <trkpt lat="51.658549" lon="7.251220">
        <ele>109.943862</ele>
        <time>2025-08-26T08:22:23.058Z</time>
      </trkpt>
      <trkpt lat="51.658516" lon="7.251436">
        <ele>109.943862</ele>
        <time>2025-08-26T08:22:25.060Z</time>
      </trkpt>
      <trkpt lat="51.658526" lon="7.251579">
        <ele>109.943862</ele>
        <time>2025-08-26T08:22:26.387Z</time>
      </trkpt>
      <trkpt lat="51.658569" lon="7.251749">
        <ele>109.943862</ele>
        <time>2025-08-26T08:22:28.100Z</time>
      </trkpt>
      <trkpt lat="51.658867" lon="7.252457">
        <ele>109.739099</ele>
        <time>2025-08-26T08:22:35.903Z</time>
      </trkpt>
      <trkpt lat="51.658930" lon="7.252681">
        <ele>109.448702</ele>
        <time>2025-08-26T08:22:38.120Z</time>
      </trkpt>
      <trkpt lat="51.658966" lon="7.252808">
        <ele>109.283835</ele>
        <time>2025-08-26T08:22:39.373Z</time>
      </trkpt>
      <trkpt lat="51.659002" lon="7.253029">
        <ele>109.014048</ele>
        <time>2025-08-26T08:22:41.434Z</time>
      </trkpt>
      <trkpt lat="51.659020" lon="7.253236">
        <ele>108.767247</ele>
        <time>2025-08-26T08:22:43.354Z</time>
      </trkpt>
      <trkpt lat="51.659026" lon="7.254695">
        <ele>107.044527</ele>
        <time>2025-08-26T08:22:57.359Z</time>
      </trkpt>
      <trkpt lat="51.659060" lon="7.255932">
        <ele>106.498952</ele>
        <time>2025-08-26T08:23:10.648Z</time>
      </trkpt>
      <trkpt lat="51.659137" lon="7.256977">
        <ele>106.470531</ele>
        <time>2025-08-26T08:23:22.570Z</time>
      </trkpt>
      <trkpt lat="51.659184" lon="7.257549">
        <ele>106.454948</ele>
        <time>2025-08-26T08:23:29.670Z</time>
      </trkpt>
      <trkpt lat="51.659247" lon="7.257736">
        <ele>106.449201</ele>
        <time>2025-08-26T08:23:32.529Z</time>
      </trkpt>
      <trkpt lat="51.659535" lon="7.258289">
        <ele>106.777266</ele>
        <time>2025-08-26T08:23:42.478Z</time>
      </trkpt>
      <trkpt lat="51.659618" lon="7.258540">
        <ele>106.984942</ele>
        <time>2025-08-26T08:23:46.377Z</time>
      </trkpt>
      <trkpt lat="51.659777" lon="7.258312">
        <ele>107.235412</ele>
        <time>2025-08-26T08:23:51.041Z</time>
      </trkpt>
      <trkpt lat="51.660531" lon="7.258140">
        <ele>108.131715</ele>
        <time>2025-08-26T08:24:08.500Z</time>
      </trkpt>
      <trkpt lat="51.661026" lon="7.258089">
        <ele>108.673219</ele>
        <time>2025-08-26T08:24:20.594Z</time>
      </trkpt>
      <trkpt lat="51.661713" lon="7.258191">
        <ele>109.265628</ele>
        <time>2025-08-26T08:24:36.681Z</time>
      </trkpt>
      <trkpt lat="51.662034" lon="7.258320">
        <ele>109.549699</ele>
        <time>2025-08-26T08:24:44.222Z</time>
      </trkpt>
      <trkpt lat="51.662893" lon="7.258746">
        <ele>110.010749</ele>
        <time>2025-08-26T08:25:00.541Z</time>
      </trkpt>
      <trkpt lat="51.662950" lon="7.258763">
        <ele>109.989541</ele>
        <time>2025-08-26T08:25:01.591Z</time>
      </trkpt>
      <trkpt lat="51.662893" lon="7.258746">
        <ele>109.968333</ele>
        <time>2025-08-26T08:25:02.535Z</time>
      </trkpt>
      <trkpt lat="51.662969" lon="7.259182">
        <ele>109.865555</ele>
        <time>2025-08-26T08:25:10.582Z</time>
      </trkpt>
      <trkpt lat="51.663127" lon="7.259488">
        <ele>109.775200</ele>
        <time>2025-08-26T08:25:17.563Z</time>
      </trkpt>
      <trkpt lat="51.664322" lon="7.261246">
        <ele>108.461802</ele>
        <time>2025-08-26T08:26:03.664Z</time>
      </trkpt>
      <trkpt lat="51.664374" lon="7.261327">
        <ele>108.362546</ele>
        <time>2025-08-26T08:26:05.746Z</time>
      </trkpt>
      <trkpt lat="51.665220" lon="7.261794">
        <ele>107.135047</ele>
        <time>2025-08-26T08:26:29.484Z</time>
      </trkpt>
      <trkpt lat="51.666103" lon="7.262281">
        <ele>104.427482</ele>
        <time>2025-08-26T08:26:52.557Z</time>
      </trkpt>
      <trkpt lat="51.666703" lon="7.262612">
        <ele>102.450727</ele>
        <time>2025-08-26T08:27:07.758Z</time>
      </trkpt>
      <trkpt lat="51.667068" lon="7.262854">
        <ele>101.271932</ele>
        <time>2025-08-26T08:27:17.430Z</time>
      </trkpt>
      <trkpt lat="51.668635" lon="7.264836">
        <ele>98.128447</ele>
        <time>2025-08-26T08:28:08.735Z</time>
      </trkpt>
      <trkpt lat="51.668761" lon="7.262179">
        <ele>101.301018</ele>
        <time>2025-08-26T08:29:15.263Z</time>
      </trkpt>
      <trkpt lat="51.668795" lon="7.261465">
        <ele>102.994934</ele>
        <time>2025-08-26T08:29:35.852Z</time>
      </trkpt>
      <trkpt lat="51.668880" lon="7.261023">
        <ele>104.089578</ele>
        <time>2025-08-26T08:29:48.973Z</time>
      </trkpt>
      <trkpt lat="51.669033" lon="7.260585">
        <ele>105.278681</ele>
        <time>2025-08-26T08:30:03.257Z</time>
      </trkpt>
      <trkpt lat="51.669176" lon="7.260273">
        <ele>106.196362</ele>
        <time>2025-08-26T08:30:14.359Z</time>
      </trkpt>
      <trkpt lat="51.669467" lon="7.259801">
        <ele>107.770645</ele>
        <time>2025-08-26T08:30:33.448Z</time>
      </trkpt>
      <trkpt lat="51.670324" lon="7.258118">
        <ele>111.323529</ele>
        <time>2025-08-26T08:31:32.872Z</time>
      </trkpt>
      <trkpt lat="51.670465" lon="7.257791">
        <ele>111.971707</ele>
        <time>2025-08-26T08:31:41.687Z</time>
      </trkpt>
      <trkpt lat="51.670570" lon="7.257442">
        <ele>112.423111</ele>
        <time>2025-08-26T08:31:49.331Z</time>
      </trkpt>
      <trkpt lat="51.670678" lon="7.256969">
        <ele>111.488384</ele>
        <time>2025-08-26T08:31:58.115Z</time>
      </trkpt>
      <trkpt lat="51.670901" lon="7.256170">
        <ele>109.863533</ele>
        <time>2025-08-26T08:32:11.726Z</time>
      </trkpt>
      <trkpt lat="51.671051" lon="7.255925">
        <ele>109.225091</ele>
        <time>2025-08-26T08:32:16.739Z</time>
      </trkpt>
      <trkpt lat="51.671278" lon="7.255738">
        <ele>108.462858</ele>
        <time>2025-08-26T08:32:22.575Z</time>
      </trkpt>
      <trkpt lat="51.671550" lon="7.255633">
        <ele>107.626536</ele>
        <time>2025-08-26T08:32:28.989Z</time>
      </trkpt>
      <trkpt lat="51.671681" lon="7.255537">
        <ele>107.196262</ele>
        <time>2025-08-26T08:32:32.308Z</time>
      </trkpt>
      <trkpt lat="51.671997" lon="7.255121">
        <ele>105.712192</ele>
        <time>2025-08-26T08:32:41.873Z</time>
      </trkpt>
      <trkpt lat="51.672163" lon="7.254914">
        <ele>104.942274</ele>
        <time>2025-08-26T08:32:46.875Z</time>
      </trkpt>
      <trkpt lat="51.672275" lon="7.254854">
        <ele>104.509268</ele>
        <time>2025-08-26T08:32:49.718Z</time>
      </trkpt>
      <trkpt lat="51.672497" lon="7.254817">
        <ele>103.690422</ele>
        <time>2025-08-26T08:32:55.182Z</time>
      </trkpt>
      <trkpt lat="51.673861" lon="7.254692">
        <ele>98.734562</ele>
        <time>2025-08-26T08:33:29.004Z</time>
      </trkpt>
      <trkpt lat="51.674144" lon="7.254641">
        <ele>97.721552</ele>
        <time>2025-08-26T08:33:35.909Z</time>
      </trkpt>
      <trkpt lat="51.674266" lon="7.254496">
        <ele>97.182404</ele>
        <time>2025-08-26T08:33:39.537Z</time>
      </trkpt>
      <trkpt lat="51.674413" lon="7.254254">
        <ele>96.435093</ele>
        <time>2025-08-26T08:33:44.537Z</time>
      </trkpt>
      <trkpt lat="51.674794" lon="7.253465">
        <ele>94.229059</ele>
        <time>2025-08-26T08:33:59.151Z</time>
      </trkpt>
      <trkpt lat="51.675093" lon="7.253119">
        <ele>93.594623</ele>
        <time>2025-08-26T08:34:08.241Z</time>
      </trkpt>
      <trkpt lat="51.675235" lon="7.253033">
        <ele>93.352704</ele>
        <time>2025-08-26T08:34:12.097Z</time>
      </trkpt>
      <trkpt lat="51.675534" lon="7.252593">
        <ele>92.707123</ele>
        <time>2025-08-26T08:34:22.613Z</time>
      </trkpt>
      <trkpt lat="51.675688" lon="7.252194">
        <ele>92.242316</ele>
        <time>2025-08-26T08:34:30.482Z</time>
      </trkpt>
      <trkpt lat="51.675791" lon="7.251827">
        <ele>91.843908</ele>
        <time>2025-08-26T08:34:37.536Z</time>
      </trkpt>
      <trkpt lat="51.676077" lon="7.250956">
        <ele>91.291582</ele>
        <time>2025-08-26T08:34:56.653Z</time>
      </trkpt>
      <trkpt lat="51.676319" lon="7.250357">
        <ele>91.321652</ele>
        <time>2025-08-26T08:35:11.169Z</time>
      </trkpt>
      <trkpt lat="51.676810" lon="7.249697">
        <ele>91.365009</ele>
        <time>2025-08-26T08:35:30.848Z</time>
      </trkpt>
      <trkpt lat="51.677021" lon="7.249506">
        <ele>91.381421</ele>
        <time>2025-08-26T08:35:37.839Z</time>
      </trkpt>
      <trkpt lat="51.677534" lon="7.249281">
        <ele>90.870266</ele>
        <time>2025-08-26T08:35:52.748Z</time>
      </trkpt>
      <trkpt lat="51.677931" lon="7.249226">
        <ele>90.197378</ele>
        <time>2025-08-26T08:36:03.516Z</time>
      </trkpt>
      <trkpt lat="51.678472" lon="7.249161">
        <ele>89.281254</ele>
        <time>2025-08-26T08:36:17.642Z</time>
      </trkpt>
      <trkpt lat="51.678668" lon="7.249048">
        <ele>88.929752</ele>
        <time>2025-08-26T08:36:22.983Z</time>
      </trkpt>
      <trkpt lat="51.679977" lon="7.248102">
        <ele>86.358505</ele>
        <time>2025-08-26T08:36:59.503Z</time>
      </trkpt>
      <trkpt lat="51.681102" lon="7.247326">
        <ele>84.921124</ele>
        <time>2025-08-26T08:37:33.327Z</time>
      </trkpt>
      <trkpt lat="51.681738" lon="7.246832">
        <ele>84.709715</ele>
        <time>2025-08-26T08:37:55.110Z</time>
      </trkpt>
      <trkpt lat="51.682656" lon="7.246296">
        <ele>83.782870</ele>
        <time>2025-08-26T08:38:23.845Z</time>
      </trkpt>
      <trkpt lat="51.683013" lon="7.246181">
        <ele>83.103422</ele>
        <time>2025-08-26T08:38:33.619Z</time>
      </trkpt>
      <trkpt lat="51.683466" lon="7.246167">
        <ele>82.257808</ele>
        <time>2025-08-26T08:38:45.185Z</time>
      </trkpt>
      <trkpt lat="51.683745" lon="7.246253">
        <ele>81.727671</ele>
        <time>2025-08-26T08:38:52.248Z</time>
      </trkpt>
      <trkpt lat="51.684111" lon="7.246501">
        <ele>80.950693</ele>
        <time>2025-08-26T08:39:01.979Z</time>
      </trkpt>
      <trkpt lat="51.684158" lon="7.246550">
        <ele>80.826923</ele>
        <time>2025-08-26T08:39:03.355Z</time>
      </trkpt>
      <trkpt lat="51.684209" lon="7.246604">
        <ele>80.691999</ele>
        <time>2025-08-26T08:39:04.847Z</time>
      </trkpt>
      <trkpt lat="51.684829" lon="7.247261">
        <ele>79.051349</ele>
        <time>2025-08-26T08:39:23.064Z</time>
      </trkpt>
      <trkpt lat="51.685753" lon="7.248178">
        <ele>77.270609</ele>
        <time>2025-08-26T08:39:52.545Z</time>
      </trkpt>
      <trkpt lat="51.685865" lon="7.248296">
        <ele>77.306432</ele>
        <time>2025-08-26T08:39:56.514Z</time>
      </trkpt>
      <trkpt lat="51.686242" lon="7.248888">
        <ele>77.447326</ele>
        <time>2025-08-26T08:40:12.947Z</time>
      </trkpt>
      <trkpt lat="51.686349" lon="7.248967">
        <ele>77.478838</ele>
        <time>2025-08-26T08:40:16.735Z</time>
      </trkpt>
      <trkpt lat="51.686864" lon="7.248993">
        <ele>77.616813</ele>
        <time>2025-08-26T08:40:29.883Z</time>
      </trkpt>
      <trkpt lat="51.687461" lon="7.248992">
        <ele>77.126688</ele>
        <time>2025-08-26T08:40:48.819Z</time>
      </trkpt>
      <trkpt lat="51.687710" lon="7.248501">
        <ele>76.481757</ele>
        <time>2025-08-26T08:40:59.869Z</time>
      </trkpt>
      <trkpt lat="51.690340" lon="7.246885">
        <ele>70.381177</ele>
        <time>2025-08-26T08:42:10.132Z</time>
      </trkpt>
      <trkpt lat="51.690365" lon="7.246867">
        <ele>70.313041</ele>
        <time>2025-08-26T08:42:10.837Z</time>
      </trkpt>
      <trkpt lat="51.691509" lon="7.246155">
        <ele>71.304837</ele>
        <time>2025-08-26T08:42:46.951Z</time>
      </trkpt>
      <trkpt lat="51.691658" lon="7.245971">
        <ele>71.467702</ele>
        <time>2025-08-26T08:42:54.373Z</time>
      </trkpt>
      <trkpt lat="51.692386" lon="7.245071">
        <ele>74.115433</ele>
        <time>2025-08-26T08:43:35.767Z</time>
      </trkpt>
      <trkpt lat="51.692542" lon="7.244278">
        <ele>76.432597</ele>
        <time>2025-08-26T08:44:01.440Z</time>
      </trkpt>
      <trkpt lat="51.692566" lon="7.243930">
        <ele>77.407803</ele>
        <time>2025-08-26T08:44:12.216Z</time>
      </trkpt>
      <trkpt lat="51.692518" lon="7.243361">
        <ele>79.007150</ele>
        <time>2025-08-26T08:44:29.792Z</time>
      </trkpt>
      <trkpt lat="51.692799" lon="7.242207">
        <ele>82.771059</ele>
        <time>2025-08-26T08:45:07.180Z</time>
      </trkpt>
      <trkpt lat="51.692943" lon="7.241183">
        <ele>86.050721</ele>
        <time>2025-08-26T08:45:39.230Z</time>
      </trkpt>
      <trkpt lat="51.693009" lon="7.240482">
        <ele>88.265352</ele>
        <time>2025-08-26T08:46:01.404Z</time>
      </trkpt>
      <trkpt lat="51.693028" lon="7.239983">
        <ele>89.913101</ele>
        <time>2025-08-26T08:46:17.417Z</time>
      </trkpt>
      <trkpt lat="51.693099" lon="7.239607">
        <ele>91.263571</ele>
        <time>2025-08-26T08:46:30.189Z</time>
      </trkpt>
      <trkpt lat="51.693314" lon="7.238846">
        <ele>94.136971</ele>
        <time>2025-08-26T08:46:57.825Z</time>
      </trkpt>
      <trkpt lat="51.693595" lon="7.238003">
        <ele>97.425540</ele>
        <time>2025-08-26T08:47:29.155Z</time>
      </trkpt>
      <trkpt lat="51.693734" lon="7.237705">
        <ele>98.706888</ele>
        <time>2025-08-26T08:47:41.244Z</time>
      </trkpt>
      <trkpt lat="51.694924" lon="7.235742">
        <ele>105.833616</ele>
        <time>2025-08-26T08:49:02.109Z</time>
      </trkpt>
      <trkpt lat="51.694977" lon="7.235163">
        <ele>106.302014</ele>
        <time>2025-08-26T08:49:16.265Z</time>
      </trkpt>
      <trkpt lat="51.695051" lon="7.234419">
        <ele>106.087160</ele>
        <time>2025-08-26T08:49:32.457Z</time>
      </trkpt>
      <trkpt lat="51.695097" lon="7.234201">
        <ele>106.021498</ele>
        <time>2025-08-26T08:49:36.767Z</time>
      </trkpt>
      <trkpt lat="51.695686" lon="7.233235">
        <ele>105.635134</ele>
        <time>2025-08-26T08:49:58.996Z</time>
      </trkpt>
      <trkpt lat="51.697473" lon="7.230400">
        <ele>97.217623</ele>
        <time>2025-08-26T08:50:35.684Z</time>
      </trkpt>
      <trkpt lat="51.697609" lon="7.230263">
        <ele>96.988962</ele>
        <time>2025-08-26T08:50:38.153Z</time>
      </trkpt>
      <trkpt lat="51.697721" lon="7.230205">
        <ele>96.821205</ele>
        <time>2025-08-26T08:50:40.034Z</time>
      </trkpt>
      <trkpt lat="51.697986" lon="7.230146">
        <ele>96.439689</ele>
        <time>2025-08-26T08:50:44.473Z</time>
      </trkpt>
      <trkpt lat="51.698064" lon="7.230076">
        <ele>96.312397</ele>
        <time>2025-08-26T08:50:46.022Z</time>
      </trkpt>
      <trkpt lat="51.698090" lon="7.229976">
        <ele>96.216539</ele>
        <time>2025-08-26T08:50:47.285Z</time>
      </trkpt>
      <trkpt lat="51.698206" lon="7.228383">
        <ele>98.121333</ele>
        <time>2025-08-26T08:51:16.589Z</time>
      </trkpt>
      <trkpt lat="51.698211" lon="7.228316">
        <ele>98.350499</ele>
        <time>2025-08-26T08:51:18.345Z</time>
      </trkpt>
      <trkpt lat="51.698276" lon="7.227474">
        <ele>101.231910</ele>
        <time>2025-08-26T08:51:46.943Z</time>
      </trkpt>
      <trkpt lat="51.698389" lon="7.225228">
        <ele>110.329585</ele>
        <time>2025-08-26T08:53:09.548Z</time>
      </trkpt>
      <trkpt lat="51.698293" lon="7.224340">
        <ele>114.638983</ele>
        <time>2025-08-26T08:53:43.040Z</time>
      </trkpt>
      <trkpt lat="51.698289" lon="7.224149">
        <ele>115.552628</ele>
        <time>2025-08-26T08:53:50.274Z</time>
      </trkpt>
      <trkpt lat="51.698324" lon="7.223926">
        <ele>116.652386</ele>
        <time>2025-08-26T08:53:59.142Z</time>
      </trkpt>
      <trkpt lat="51.698374" lon="7.223837">
        <ele>117.226649</ele>
        <time>2025-08-26T08:54:03.814Z</time>
      </trkpt>
      <trkpt lat="51.698478" lon="7.223753">
        <ele>118.123741</ele>
        <time>2025-08-26T08:54:11.140Z</time>
      </trkpt>
      <trkpt lat="51.698746" lon="7.223719">
        <ele>119.990159</ele>
        <time>2025-08-26T08:54:28.447Z</time>
      </trkpt>
      <trkpt lat="51.698850" lon="7.223656">
        <ele>120.666667</ele>
        <time>2025-08-26T08:54:35.643Z</time>
      </trkpt>
      <trkpt lat="51.698936" lon="7.223493">
        <ele>121.474624</ele>
        <time>2025-08-26T08:54:44.222Z</time>
      </trkpt>
      <trkpt lat="51.699197" lon="7.222459">
        <ele>125.688610</ele>
        <time>2025-08-26T08:55:26.057Z</time>
      </trkpt>
      <trkpt lat="51.699275" lon="7.222254">
        <ele>126.596531</ele>
        <time>2025-08-26T08:55:33.893Z</time>
      </trkpt>
      <trkpt lat="51.699362" lon="7.222064">
        <ele>127.488148</ele>
        <time>2025-08-26T08:55:40.954Z</time>
      </trkpt>
      <trkpt lat="51.699497" lon="7.221859">
        <ele>128.617118</ele>
        <time>2025-08-26T08:55:49.228Z</time>
      </trkpt>
      <trkpt lat="51.699751" lon="7.221597">
        <ele>130.163979</ele>
        <time>2025-08-26T08:56:01.597Z</time>
      </trkpt>
      <trkpt lat="51.699881" lon="7.221574">
        <ele>130.156771</ele>
        <time>2025-08-26T08:56:06.579Z</time>
      </trkpt>
      <trkpt lat="51.700167" lon="7.221622">
        <ele>130.140920</ele>
        <time>2025-08-26T08:56:16.685Z</time>
      </trkpt>
      <trkpt lat="51.700287" lon="7.221640">
        <ele>130.134277</ele>
        <time>2025-08-26T08:56:20.475Z</time>
      </trkpt>
      <trkpt lat="51.700446" lon="7.221618">
        <ele>130.125481</ele>
        <time>2025-08-26T08:56:23.537Z</time>
      </trkpt>
      <trkpt lat="51.700549" lon="7.221490">
        <ele>130.118314</ele>
        <time>2025-08-26T08:56:27.133Z</time>
      </trkpt>
      <trkpt lat="51.700907" lon="7.220666">
        <ele>130.083936</ele>
        <time>2025-08-26T08:56:43.681Z</time>
      </trkpt>
      <trkpt lat="51.701037" lon="7.220359">
        <ele>130.071233</ele>
        <time>2025-08-26T08:56:49.887Z</time>
      </trkpt>
      <trkpt lat="51.701219" lon="7.219996">
        <ele>129.823089</ele>
        <time>2025-08-26T08:56:57.957Z</time>
      </trkpt>
      <trkpt lat="51.701857" lon="7.219020">
        <ele>128.848048</ele>
        <time>2025-08-26T08:57:21.854Z</time>
      </trkpt>
      <trkpt lat="51.701920" lon="7.218726">
        <ele>128.634231</ele>
        <time>2025-08-26T08:57:27.099Z</time>
      </trkpt>
      <trkpt lat="51.701946" lon="7.217977">
        <ele>128.118606</ele>
        <time>2025-08-26T08:57:40.100Z</time>
      </trkpt>
      <trkpt lat="51.701956" lon="7.217312">
        <ele>127.166323</ele>
        <time>2025-08-26T08:57:51.749Z</time>
      </trkpt>
      <trkpt lat="51.701964" lon="7.216822">
        <ele>126.423819</ele>
        <time>2025-08-26T08:58:00.026Z</time>
      </trkpt>
      <trkpt lat="51.701927" lon="7.216589">
        <ele>126.059472</ele>
        <time>2025-08-26T08:58:03.975Z</time>
      </trkpt>
      <trkpt lat="51.701776" lon="7.216229">
        <ele>125.400994</ele>
        <time>2025-08-26T08:58:10.940Z</time>
      </trkpt>
      <trkpt lat="51.701724" lon="7.216024">
        <ele>125.065458</ele>
        <time>2025-08-26T08:58:14.403Z</time>
      </trkpt>
      <trkpt lat="51.702325" lon="7.215885">
        <ele>123.432348</ele>
        <time>2025-08-26T08:58:29.029Z</time>
      </trkpt>
      <trkpt lat="51.703195" lon="7.216350">
        <ele>117.672850</ele>
        <time>2025-08-26T08:58:49.592Z</time>
      </trkpt>
      <trkpt lat="51.703894" lon="7.216628">
        <ele>113.148646</ele>
        <time>2025-08-26T08:59:05.349Z</time>
      </trkpt>
      <trkpt lat="51.704454" lon="7.217304">
        <ele>107.312705</ele>
        <time>2025-08-26T08:59:20.163Z</time>
      </trkpt>
      <trkpt lat="51.704530" lon="7.217347">
        <ele>106.605102</ele>
        <time>2025-08-26T08:59:21.871Z</time>
      </trkpt>
      <trkpt lat="51.705045" lon="7.217637">
        <ele>101.812647</ele>
        <time>2025-08-26T08:59:33.286Z</time>
      </trkpt>
      <trkpt lat="51.705546" lon="7.217968">
        <ele>97.056141</ele>
        <time>2025-08-26T08:59:44.513Z</time>
      </trkpt>
      <trkpt lat="51.705798" lon="7.218198">
        <ele>94.568461</ele>
        <time>2025-08-26T08:59:50.471Z</time>
      </trkpt>
      <trkpt lat="51.707332" lon="7.219941">
        <ele>79.579385</ele>
        <time>2025-08-26T09:00:30.064Z</time>
      </trkpt>
      <trkpt lat="51.708656" lon="7.221469">
        <ele>71.312087</ele>
        <time>2025-08-26T09:01:08.695Z</time>
      </trkpt>
      <trkpt lat="51.708779" lon="7.221589">
        <ele>70.752627</ele>
        <time>2025-08-26T09:01:11.309Z</time>
      </trkpt>
      <trkpt lat="51.709559" lon="7.222423">
        <ele>67.110600</ele>
        <time>2025-08-26T09:01:27.817Z</time>
      </trkpt>
      <trkpt lat="51.710359" lon="7.223068">
        <ele>64.788808</ele>
        <time>2025-08-26T09:01:44.770Z</time>
      </trkpt>
      <trkpt lat="51.710194" lon="7.223998">
        <ele>64.655867</ele>
        <time>2025-08-26T09:02:01.949Z</time>
      </trkpt>
      <trkpt lat="51.710182" lon="7.224131">
        <ele>64.637396</ele>
        <time>2025-08-26T09:02:04.642Z</time>
      </trkpt>
      <trkpt lat="51.710122" lon="7.224656">
        <ele>64.564031</ele>
        <time>2025-08-26T09:02:16.054Z</time>
      </trkpt>
      <trkpt lat="51.710073" lon="7.225327">
        <ele>64.471180</ele>
        <time>2025-08-26T09:02:31.426Z</time>
      </trkpt>
      <trkpt lat="51.710090" lon="7.225773">
        <ele>64.438392</ele>
        <time>2025-08-26T09:02:41.036Z</time>
      </trkpt>
      <trkpt lat="51.710050" lon="7.226151">
        <ele>64.415759</ele>
        <time>2025-08-26T09:02:48.963Z</time>
      </trkpt>
      <trkpt lat="51.710023" lon="7.226816">
        <ele>64.376427</ele>
        <time>2025-08-26T09:03:01.851Z</time>
      </trkpt>
      <trkpt lat="51.710309" lon="7.227008">
        <ele>64.346923</ele>
        <time>2025-08-26T09:03:10.829Z</time>
      </trkpt>
      <trkpt lat="51.710660" lon="7.227378">
        <ele>64.306990</ele>
        <time>2025-08-26T09:03:22.590Z</time>
      </trkpt>
      <trkpt lat="51.711666" lon="7.228517">
        <ele>61.762243</ele>
        <time>2025-08-26T09:03:54.453Z</time>
      </trkpt>
      <trkpt lat="51.711857" lon="7.228808">
        <ele>61.121695</ele>
        <time>2025-08-26T09:03:58.557Z</time>
      </trkpt>
      <trkpt lat="51.711932" lon="7.229014">
        <ele>60.760664</ele>
        <time>2025-08-26T09:04:00.874Z</time>
      </trkpt>
      <trkpt lat="51.712085" lon="7.229538">
        <ele>59.880364</ele>
        <time>2025-08-26T09:04:06.423Z</time>
      </trkpt>
      <trkpt lat="51.712117" lon="7.229651">
        <ele>59.637158</ele>
        <time>2025-08-26T09:04:07.606Z</time>
      </trkpt>
      <trkpt lat="51.712631" lon="7.229808">
        <ele>57.984477</ele>
        <time>2025-08-26T09:04:14.653Z</time>
      </trkpt>
      <trkpt lat="51.712682" lon="7.229822">
        <ele>57.821041</ele>
        <time>2025-08-26T09:04:15.361Z</time>
      </trkpt>
      <trkpt lat="51.712712" lon="7.229829">
        <ele>57.725278</ele>
        <time>2025-08-26T09:04:15.774Z</time>
      </trkpt>
      <trkpt lat="51.713524" lon="7.230050">
        <ele>55.123747</ele>
        <time>2025-08-26T09:04:27.021Z</time>
      </trkpt>
      <trkpt lat="51.713803" lon="7.230132">
        <ele>54.227820</ele>
        <time>2025-08-26T09:04:30.933Z</time>
      </trkpt>
      <trkpt lat="51.714222" lon="7.230247">
        <ele>53.274883</ele>
        <time>2025-08-26T09:04:36.850Z</time>
      </trkpt>
      <trkpt lat="51.715627" lon="7.230688">
        <ele>50.115640</ele>
        <time>2025-08-26T09:04:57.836Z</time>
      </trkpt>
      <trkpt lat="51.715922" lon="7.230786">
        <ele>49.672398</ele>
        <time>2025-08-26T09:05:02.395Z</time>
      </trkpt>
      <trkpt lat="51.716180" lon="7.230860">
        <ele>49.286759</ele>
        <time>2025-08-26T09:05:06.350Z</time>
      </trkpt>
      <trkpt lat="51.716722" lon="7.231013">
        <ele>48.477009</ele>
        <time>2025-08-26T09:05:14.745Z</time>
      </trkpt>
      <trkpt lat="51.716923" lon="7.231111">
        <ele>48.168003</ele>
        <time>2025-08-26T09:05:18.001Z</time>
      </trkpt>
      <trkpt lat="51.717080" lon="7.231199">
        <ele>47.923416</ele>
        <time>2025-08-26T09:05:20.598Z</time>
      </trkpt>
      <trkpt lat="51.717171" lon="7.231250">
        <ele>47.781652</ele>
        <time>2025-08-26T09:05:22.099Z</time>
      </trkpt>
      <trkpt lat="51.718575" lon="7.232267">
        <ele>46.039085</ele>
        <time>2025-08-26T09:05:46.380Z</time>
      </trkpt>
      <trkpt lat="51.719095" lon="7.232668">
        <ele>45.484155</ele>
        <time>2025-08-26T09:05:55.423Z</time>
      </trkpt>
      <trkpt lat="51.719140" lon="7.232701">
        <ele>45.453512</ele>
        <time>2025-08-26T09:05:56.198Z</time>
      </trkpt>
      <trkpt lat="51.719193" lon="7.232749">
        <ele>45.415834</ele>
        <time>2025-08-26T09:05:57.156Z</time>
      </trkpt>
      <trkpt lat="51.719240" lon="7.232614">
        <ele>45.356355</ele>
        <time>2025-08-26T09:05:59.188Z</time>
      </trkpt>
      <trkpt lat="51.720205" lon="7.230296">
        <ele>44.322460</ele>
        <time>2025-08-26T09:06:37.879Z</time>
      </trkpt>
      <trkpt lat="51.720549" lon="7.229459">
        <ele>44.017972</ele>
        <time>2025-08-26T09:06:52.244Z</time>
      </trkpt>
      <trkpt lat="51.720683" lon="7.228970">
        <ele>43.855882</ele>
        <time>2025-08-26T09:06:59.781Z</time>
      </trkpt>
      <trkpt lat="51.720902" lon="7.227699">
        <ele>43.128392</ele>
        <time>2025-08-26T09:07:17.641Z</time>
      </trkpt>
      <trkpt lat="51.721018" lon="7.226996">
        <ele>42.358658</ele>
        <time>2025-08-26T09:07:26.878Z</time>
      </trkpt>
      <trkpt lat="51.721130" lon="7.226845">
        <ele>42.109429</ele>
        <time>2025-08-26T09:07:29.058Z</time>
      </trkpt>
      <trkpt lat="51.721275" lon="7.226844">
        <ele>41.861780</ele>
        <time>2025-08-26T09:07:31.196Z</time>
      </trkpt>
      <trkpt lat="51.721992" lon="7.227685">
        <ele>40.399529</ele>
        <time>2025-08-26T09:07:43.944Z</time>
      </trkpt>
      <trkpt lat="51.722630" lon="7.228495">
        <ele>39.439113</ele>
        <time>2025-08-26T09:07:56.063Z</time>
      </trkpt>
      <trkpt lat="51.722722" lon="7.228627">
        <ele>39.293471</ele>
        <time>2025-08-26T09:07:58.008Z</time>
      </trkpt>
      <trkpt lat="51.724367" lon="7.230722">
        <ele>38.137146</ele>
        <time>2025-08-26T09:08:33.826Z</time>
      </trkpt>
      <trkpt lat="51.725069" lon="7.231603">
        <ele>38.442836</ele>
        <time>2025-08-26T09:08:49.397Z</time>
      </trkpt>
      <trkpt lat="51.726581" lon="7.233571">
        <ele>40.306976</ele>
        <time>2025-08-26T09:09:34.524Z</time>
      </trkpt>
      <trkpt lat="51.727260" lon="7.234448">
        <ele>41.187904</ele>
        <time>2025-08-26T09:09:53.501Z</time>
      </trkpt>
      <trkpt lat="51.728131" lon="7.235572">
        <ele>42.039295</ele>
        <time>2025-08-26T09:10:15.631Z</time>
      </trkpt>
      <trkpt lat="51.730663" lon="7.238832">
        <ele>44.209922</ele>
        <time>2025-08-26T09:11:22.078Z</time>
      </trkpt>
      <trkpt lat="51.731374" lon="7.239751">
        <ele>44.855195</ele>
        <time>2025-08-26T09:11:40.774Z</time>
      </trkpt>
      <trkpt lat="51.732076" lon="7.240630">
        <ele>45.500366</ele>
        <time>2025-08-26T09:11:59.469Z</time>
      </trkpt>
      <trkpt lat="51.732529" lon="7.241105">
        <ele>45.904831</ele>
        <time>2025-08-26T09:12:10.953Z</time>
      </trkpt>
      <trkpt lat="51.732956" lon="7.241457">
        <ele>46.263835</ele>
        <time>2025-08-26T09:12:21.218Z</time>
      </trkpt>
      <trkpt lat="51.733547" lon="7.241786">
        <ele>46.499491</ele>
        <time>2025-08-26T09:12:33.933Z</time>
      </trkpt>
      <trkpt lat="51.734077" lon="7.241977">
        <ele>46.374253</ele>
        <time>2025-08-26T09:12:43.537Z</time>
      </trkpt>
      <trkpt lat="51.734514" lon="7.242047">
        <ele>46.272975</ele>
        <time>2025-08-26T09:12:50.864Z</time>
      </trkpt>
      <trkpt lat="51.737462" lon="7.242266">
        <ele>44.822461</ele>
        <time>2025-08-26T09:13:38.839Z</time>
      </trkpt>
      <trkpt lat="51.740500" lon="7.242579">
        <ele>45.919404</ele>
        <time>2025-08-26T09:14:39.164Z</time>
      </trkpt>
      <trkpt lat="51.741017" lon="7.242641">
        <ele>46.320314</ele>
        <time>2025-08-26T09:14:50.399Z</time>
      </trkpt>
      <trkpt lat="51.741031" lon="7.242707">
        <ele>46.353722</ele>
        <time>2025-08-26T09:14:51.332Z</time>
      </trkpt>
      <trkpt lat="51.741120" lon="7.242701">
        <ele>46.422608</ele>
        <time>2025-08-26T09:14:53.295Z</time>
      </trkpt>
      <trkpt lat="51.741223" lon="7.242691">
        <ele>46.502404</ele>
        <time>2025-08-26T09:14:55.536Z</time>
      </trkpt>
      <trkpt lat="51.741246" lon="7.242632">
        <ele>46.535789</ele>
        <time>2025-08-26T09:14:56.464Z</time>
      </trkpt>
      <trkpt lat="51.741293" lon="7.242605">
        <ele>46.574367</ele>
        <time>2025-08-26T09:14:57.538Z</time>
      </trkpt>
      <trkpt lat="51.742136" lon="7.242586">
        <ele>47.226344</ele>
        <time>2025-08-26T09:15:15.404Z</time>
      </trkpt>
      <trkpt lat="51.742406" lon="7.242540">
        <ele>47.252588</ele>
        <time>2025-08-26T09:15:20.719Z</time>
      </trkpt>
      <trkpt lat="51.743048" lon="7.242432">
        <ele>47.104189</ele>
        <time>2025-08-26T09:15:32.185Z</time>
      </trkpt>
      <trkpt lat="51.745069" lon="7.242010">
        <ele>46.150703</ele>
        <time>2025-08-26T09:16:05.831Z</time>
      </trkpt>
      <trkpt lat="51.745061" lon="7.241935">
        <ele>46.118468</ele>
        <time>2025-08-26T09:16:06.629Z</time>
      </trkpt>
      <trkpt lat="51.745066" lon="7.241621">
        <ele>45.985423</ele>
        <time>2025-08-26T09:16:12.149Z</time>
      </trkpt>
      <trkpt lat="51.745262" lon="7.241600">
        <ele>45.851045</ele>
        <time>2025-08-26T09:16:15.764Z</time>
      </trkpt>
      <trkpt lat="51.745700" lon="7.241588">
        <ele>45.467643</ele>
        <time>2025-08-26T09:16:23.730Z</time>
      </trkpt>
      <trkpt lat="51.745840" lon="7.241647">
        <ele>45.285251</ele>
        <time>2025-08-26T09:16:26.325Z</time>
      </trkpt>
      <trkpt lat="51.745964" lon="7.241652">
        <ele>45.128888</ele>
        <time>2025-08-26T09:16:28.540Z</time>
      </trkpt>
      <trkpt lat="51.745977" lon="7.242046">
        <ele>44.820935</ele>
        <time>2025-08-26T09:16:32.840Z</time>
      </trkpt>
      <trkpt lat="51.746759" lon="7.242565">
        <ele>43.755167</ele>
        <time>2025-08-26T09:16:45.612Z</time>
      </trkpt>
      <trkpt lat="51.747054" lon="7.242698">
        <ele>43.380565</ele>
        <time>2025-08-26T09:16:50.245Z</time>
      </trkpt>
      <trkpt lat="51.747416" lon="7.242831">
        <ele>43.289293</ele>
        <time>2025-08-26T09:16:56.069Z</time>
      </trkpt>
      <trkpt lat="51.747695" lon="7.242905">
        <ele>43.219782</ele>
        <time>2025-08-26T09:17:00.676Z</time>
      </trkpt>
      <trkpt lat="51.748847" lon="7.243327">
        <ele>42.953367</ele>
        <time>2025-08-26T09:17:22.636Z</time>
      </trkpt>
      <trkpt lat="51.749237" lon="7.243386">
        <ele>43.053244</ele>
        <time>2025-08-26T09:17:30.982Z</time>
      </trkpt>
      <trkpt lat="51.749415" lon="7.243368">
        <ele>43.098719</ele>
        <time>2025-08-26T09:17:34.763Z</time>
      </trkpt>
      <trkpt lat="51.749800" lon="7.243285">
        <ele>43.197757</ele>
        <time>2025-08-26T09:17:42.710Z</time>
      </trkpt>
      <trkpt lat="51.750030" lon="7.243182">
        <ele>43.258614</ele>
        <time>2025-08-26T09:17:47.088Z</time>
      </trkpt>
      <trkpt lat="51.750467" lon="7.242883">
        <ele>43.379624</ele>
        <time>2025-08-26T09:17:55.296Z</time>
      </trkpt>
      <trkpt lat="51.750669" lon="7.242624">
        <ele>43.291305</ele>
        <time>2025-08-26T09:17:59.671Z</time>
      </trkpt>
      <trkpt lat="51.750899" lon="7.242142">
        <ele>43.062913</ele>
        <time>2025-08-26T09:18:06.233Z</time>
      </trkpt>
      <trkpt lat="51.751856" lon="7.239693">
        <ele>42.030096</ele>
        <time>2025-08-26T09:18:36.760Z</time>
      </trkpt>
      <trkpt lat="51.752919" lon="7.237056">
        <ele>41.502634</ele>
        <time>2025-08-26T09:19:11.243Z</time>
      </trkpt>
      <trkpt lat="51.753153" lon="7.236266">
        <ele>41.585417</ele>
        <time>2025-08-26T09:19:21.936Z</time>
      </trkpt>
      <trkpt lat="51.753383" lon="7.234935">
        <ele>41.752599</ele>
        <time>2025-08-26T09:19:40.095Z</time>
      </trkpt>
      <trkpt lat="51.753718" lon="7.233376">
        <ele>42.033801</ele>
        <time>2025-08-26T09:20:00.910Z</time>
      </trkpt>
      <trkpt lat="51.753781" lon="7.233055">
        <ele>42.091182</ele>
        <time>2025-08-26T09:20:04.708Z</time>
      </trkpt>
      <trkpt lat="51.753858" lon="7.232810">
        <ele>42.138002</ele>
        <time>2025-08-26T09:20:07.791Z</time>
      </trkpt>
      <trkpt lat="51.754030" lon="7.232475">
        <ele>42.112470</ele>
        <time>2025-08-26T09:20:12.598Z</time>
      </trkpt>
      <trkpt lat="51.754203" lon="7.232244">
        <ele>42.042001</ele>
        <time>2025-08-26T09:20:16.551Z</time>
      </trkpt>
      <trkpt lat="51.754967" lon="7.231575">
        <ele>41.769157</ele>
        <time>2025-08-26T09:20:31.740Z</time>
      </trkpt>
      <trkpt lat="51.755339" lon="7.231211">
        <ele>41.632607</ele>
        <time>2025-08-26T09:20:39.512Z</time>
      </trkpt>
      <trkpt lat="51.755561" lon="7.230958">
        <ele>41.644062</ele>
        <time>2025-08-26T09:20:44.449Z</time>
      </trkpt>
      <trkpt lat="51.755766" lon="7.230624">
        <ele>41.717749</ele>
        <time>2025-08-26T09:20:49.864Z</time>
      </trkpt>
      <trkpt lat="51.756122" lon="7.229950">
        <ele>41.856555</ele>
        <time>2025-08-26T09:21:00.614Z</time>
      </trkpt>
      <trkpt lat="51.756501" lon="7.228942">
        <ele>42.041319</ele>
        <time>2025-08-26T09:21:15.603Z</time>
      </trkpt>
      <trkpt lat="51.756653" lon="7.228383">
        <ele>42.244340</ele>
        <time>2025-08-26T09:21:23.338Z</time>
      </trkpt>
      <trkpt lat="51.756768" lon="7.227814">
        <ele>42.462594</ele>
        <time>2025-08-26T09:21:31.072Z</time>
      </trkpt>
      <trkpt lat="51.756840" lon="7.227294">
        <ele>42.656888</ele>
        <time>2025-08-26T09:21:38.071Z</time>
      </trkpt>
      <trkpt lat="51.756885" lon="7.226720">
        <ele>42.867858</ele>
        <time>2025-08-26T09:21:45.576Z</time>
      </trkpt>
      <trkpt lat="51.756895" lon="7.226313">
        <ele>43.016380</ele>
        <time>2025-08-26T09:21:51.029Z</time>
      </trkpt>
      <trkpt lat="51.756897" lon="7.226121">
        <ele>43.086398</ele>
        <time>2025-08-26T09:21:53.620Z</time>
      </trkpt>
      <trkpt lat="51.756853" lon="7.225058">
        <ele>43.782395</ele>
        <time>2025-08-26T09:22:08.453Z</time>
      </trkpt>
      <trkpt lat="51.756743" lon="7.224055">
        <ele>44.471754</ele>
        <time>2025-08-26T09:22:24.266Z</time>
      </trkpt>
      <trkpt lat="51.756900" lon="7.224118">
        <ele>44.648619</ele>
        <time>2025-08-26T09:22:29.923Z</time>
      </trkpt>
      <trkpt lat="51.757228" lon="7.224248">
        <ele>45.017857</ele>
        <time>2025-08-26T09:22:41.794Z</time>
      </trkpt>
      <trkpt lat="51.757693" lon="7.224529">
        <ele>45.449228</ele>
        <time>2025-08-26T09:22:59.315Z</time>
      </trkpt>
      <trkpt lat="51.758266" lon="7.224746">
        <ele>45.942870</ele>
        <time>2025-08-26T09:23:19.791Z</time>
      </trkpt>
      <trkpt lat="51.759044" lon="7.225237">
        <ele>46.555703</ele>
        <time>2025-08-26T09:23:45.973Z</time>
      </trkpt>
      <trkpt lat="51.759806" lon="7.225900">
        <ele>46.073746</ele>
        <time>2025-08-26T09:24:10.568Z</time>
      </trkpt>
      <trkpt lat="51.760686" lon="7.226561">
        <ele>45.543138</ele>
        <time>2025-08-26T09:24:37.368Z</time>
      </trkpt>
      <trkpt lat="51.762878" lon="7.227874">
        <ele>44.892474</ele>
        <time>2025-08-26T09:25:44.747Z</time>
      </trkpt>
      <trkpt lat="51.764676" lon="7.228407">
        <ele>45.202028</ele>
        <time>2025-08-26T09:26:43.094Z</time>
      </trkpt>
      <trkpt lat="51.764458" lon="7.229100">
        <ele>45.256652</ele>
        <time>2025-08-26T09:26:57.353Z</time>
      </trkpt>
      <trkpt lat="51.764338" lon="7.229658">
        <ele>45.298161</ele>
        <time>2025-08-26T09:27:08.011Z</time>
      </trkpt>
      <trkpt lat="51.764238" lon="7.230357">
        <ele>45.316843</ele>
        <time>2025-08-26T09:27:20.705Z</time>
      </trkpt>
      <trkpt lat="51.764409" lon="7.230412">
        <ele>45.302229</ele>
        <time>2025-08-26T09:27:23.666Z</time>
      </trkpt>
      <trkpt lat="51.764344" lon="7.230665">
        <ele>45.288018</ele>
        <time>2025-08-26T09:27:26.580Z</time>
      </trkpt>
      <trkpt lat="51.764305" lon="7.230940">
        <ele>45.273383</ele>
        <time>2025-08-26T09:27:29.638Z</time>
      </trkpt>
      <trkpt lat="51.764297" lon="7.231274">
        <ele>45.256043</ele>
        <time>2025-08-26T09:27:33.300Z</time>
      </trkpt>
      <trkpt lat="51.764320" lon="7.231684">
        <ele>45.234687</ele>
        <time>2025-08-26T09:27:37.856Z</time>
      </trkpt>
      <trkpt lat="51.764474" lon="7.233321">
        <ele>45.198358</ele>
        <time>2025-08-26T09:27:56.552Z</time>
      </trkpt>
      <trkpt lat="51.764640" lon="7.234475">
        <ele>45.235913</ele>
        <time>2025-08-26T09:28:10.081Z</time>
      </trkpt>
      <trkpt lat="51.764853" lon="7.235503">
        <ele>45.270277</ele>
        <time>2025-08-26T09:28:21.672Z</time>
      </trkpt>
      <trkpt lat="51.765058" lon="7.236229">
        <ele>45.382078</ele>
        <time>2025-08-26T09:28:30.411Z</time>
      </trkpt>
      <trkpt lat="51.765653" lon="7.238241">
        <ele>45.734230</ele>
        <time>2025-08-26T09:28:56.712Z</time>
      </trkpt>
      <trkpt lat="51.765928" lon="7.239509">
        <ele>46.374642</ele>
        <time>2025-08-26T09:29:14.370Z</time>
      </trkpt>
      <trkpt lat="51.766470" lon="7.241419">
        <ele>47.431127</ele>
        <time>2025-08-26T09:29:41.687Z</time>
      </trkpt>
      <trkpt lat="51.766584" lon="7.241925">
        <ele>47.735857</ele>
        <time>2025-08-26T09:29:48.983Z</time>
      </trkpt>
      <trkpt lat="51.766907" lon="7.244122">
        <ele>48.869885</ele>
        <time>2025-08-26T09:30:19.435Z</time>
      </trkpt>
      <trkpt lat="51.768496" lon="7.251670">
        <ele>50.758342</ele>
        <time>2025-08-26T09:31:54.621Z</time>
      </trkpt>
      <trkpt lat="51.769411" lon="7.255812">
        <ele>49.516730</ele>
        <time>2025-08-26T09:32:40.237Z</time>
      </trkpt>
      <trkpt lat="51.769610" lon="7.257087">
        <ele>48.937194</ele>
        <time>2025-08-26T09:32:53.418Z</time>
      </trkpt>
      <trkpt lat="51.769647" lon="7.259631">
        <ele>47.706957</ele>
        <time>2025-08-26T09:33:18.644Z</time>
      </trkpt>
      <trkpt lat="51.769705" lon="7.260614">
        <ele>47.337010</ele>
        <time>2025-08-26T09:33:28.830Z</time>
      </trkpt>
      <trkpt lat="51.769905" lon="7.261568">
        <ele>47.245939</ele>
        <time>2025-08-26T09:33:39.640Z</time>
      </trkpt>
      <trkpt lat="51.770576" lon="7.264086">
        <ele>47.085709</ele>
        <time>2025-08-26T09:34:09.967Z</time>
      </trkpt>
      <trkpt lat="51.770921" lon="7.265732">
        <ele>47.063686</ele>
        <time>2025-08-26T09:34:29.084Z</time>
      </trkpt>
      <trkpt lat="51.771864" lon="7.270721">
        <ele>46.702075</ele>
        <time>2025-08-26T09:35:25.212Z</time>
      </trkpt>
      <trkpt lat="51.772702" lon="7.275669">
        <ele>47.115014</ele>
        <time>2025-08-26T09:36:23.372Z</time>
      </trkpt>
      <trkpt lat="51.772962" lon="7.277559">
        <ele>47.376280</ele>
        <time>2025-08-26T09:36:46.617Z</time>
      </trkpt>
      <trkpt lat="51.773152" lon="7.277658">
        <ele>47.408998</ele>
        <time>2025-08-26T09:36:50.371Z</time>
      </trkpt>
      <trkpt lat="51.773819" lon="7.278480">
        <ele>47.546470</ele>
        <time>2025-08-26T09:37:05.651Z</time>
      </trkpt>
      <trkpt lat="51.774232" lon="7.278991">
        <ele>47.629873</ele>
        <time>2025-08-26T09:37:14.867Z</time>
      </trkpt>
      <trkpt lat="51.775051" lon="7.279617">
        <ele>47.766444</ele>
        <time>2025-08-26T09:37:31.607Z</time>
      </trkpt>
      <trkpt lat="51.775223" lon="7.279746">
        <ele>47.795028</ele>
        <time>2025-08-26T09:37:35.242Z</time>
      </trkpt>
      <trkpt lat="51.776344" lon="7.280580">
        <ele>47.754031</ele>
        <time>2025-08-26T09:37:58.144Z</time>
      </trkpt>
      <trkpt lat="51.776649" lon="7.280775">
        <ele>47.692536</ele>
        <time>2025-08-26T09:38:03.820Z</time>
      </trkpt>
      <trkpt lat="51.776835" lon="7.280839">
        <ele>47.656882</ele>
        <time>2025-08-26T09:38:07.080Z</time>
      </trkpt>
      <trkpt lat="51.777254" lon="7.280781">
        <ele>47.578037</ele>
        <time>2025-08-26T09:38:14.192Z</time>
      </trkpt>
      <trkpt lat="51.777704" lon="7.280655">
        <ele>47.348725</ele>
        <time>2025-08-26T09:38:21.698Z</time>
      </trkpt>
      <trkpt lat="51.777994" lon="7.280574">
        <ele>47.135745</ele>
        <time>2025-08-26T09:38:26.462Z</time>
      </trkpt>
      <trkpt lat="51.778342" lon="7.280450">
        <ele>46.877854</ele>
        <time>2025-08-26T09:38:32.217Z</time>
      </trkpt>
      <trkpt lat="51.778686" lon="7.280275">
        <ele>46.616866</ele>
        <time>2025-08-26T09:38:38.023Z</time>
      </trkpt>
      <trkpt lat="51.780157" lon="7.279395">
        <ele>45.641229</ele>
        <time>2025-08-26T09:39:03.665Z</time>
      </trkpt>
      <trkpt lat="51.780218" lon="7.279354">
        <ele>45.603462</ele>
        <time>2025-08-26T09:39:04.796Z</time>
      </trkpt>
      <trkpt lat="51.780272" lon="7.279129">
        <ele>45.518105</ele>
        <time>2025-08-26T09:39:07.314Z</time>
      </trkpt>
      <trkpt lat="51.781011" lon="7.277178">
        <ele>45.122910</ele>
        <time>2025-08-26T09:39:31.424Z</time>
      </trkpt>
      <trkpt lat="51.781255" lon="7.276416">
        <ele>45.068785</ele>
        <time>2025-08-26T09:39:40.764Z</time>
      </trkpt>
      <trkpt lat="51.781374" lon="7.276031">
        <ele>45.041636</ele>
        <time>2025-08-26T09:39:45.709Z</time>
      </trkpt>
      <trkpt lat="51.781416" lon="7.275777">
        <ele>45.038053</ele>
        <time>2025-08-26T09:39:48.834Z</time>
      </trkpt>
      <trkpt lat="51.781411" lon="7.275384">
        <ele>45.088075</ele>
        <time>2025-08-26T09:39:53.651Z</time>
      </trkpt>
      <trkpt lat="51.781325" lon="7.273942">
        <ele>45.272429</ele>
        <time>2025-08-26T09:40:11.816Z</time>
      </trkpt>
      <trkpt lat="51.781351" lon="7.273506">
        <ele>45.328169</ele>
        <time>2025-08-26T09:40:16.785Z</time>
      </trkpt>
      <trkpt lat="51.781423" lon="7.273271">
        <ele>45.361541</ele>
        <time>2025-08-26T09:40:19.601Z</time>
      </trkpt>
      <trkpt lat="51.781554" lon="7.273054">
        <ele>45.396672</ele>
        <time>2025-08-26T09:40:22.768Z</time>
      </trkpt>
      <trkpt lat="51.781686" lon="7.272982">
        <ele>45.300582</ele>
        <time>2025-08-26T09:40:25.071Z</time>
      </trkpt>
      <trkpt lat="51.782496" lon="7.272743">
        <ele>44.732657</ele>
        <time>2025-08-26T09:40:38.256Z</time>
      </trkpt>
      <trkpt lat="51.783714" lon="7.272436">
        <ele>44.195134</ele>
        <time>2025-08-26T09:40:58.371Z</time>
      </trkpt>
      <trkpt lat="51.783830" lon="7.272407">
        <ele>44.205801</ele>
        <time>2025-08-26T09:41:00.422Z</time>
      </trkpt>
      <trkpt lat="51.785381" lon="7.272023">
        <ele>44.371061</ele>
        <time>2025-08-26T09:41:30.739Z</time>
      </trkpt>
      <trkpt lat="51.785947" lon="7.271878">
        <ele>44.468175</ele>
        <time>2025-08-26T09:41:42.625Z</time>
      </trkpt>
      <trkpt lat="51.784047" lon="7.265911">
        <ele>45.009279</ele>
        <time>2025-08-26T09:43:00.506Z</time>
      </trkpt>
      <trkpt lat="51.785309" lon="7.265128">
        <ele>45.235594</ele>
        <time>2025-08-26T09:43:25.913Z</time>
      </trkpt>
      <trkpt lat="51.785337" lon="7.265110">
        <ele>45.241980</ele>
        <time>2025-08-26T09:43:26.496Z</time>
      </trkpt>
      <trkpt lat="51.788440" lon="7.263078">
        <ele>46.059935</ele>
        <time>2025-08-26T09:44:33.507Z</time>
      </trkpt>
      <trkpt lat="51.788192" lon="7.262698">
        <ele>46.039551</ele>
        <time>2025-08-26T09:44:39.478Z</time>
      </trkpt>
      <trkpt lat="51.787082" lon="7.260739">
        <ele>45.644586</ele>
        <time>2025-08-26T09:45:07.065Z</time>
      </trkpt>
      <trkpt lat="51.786313" lon="7.258028">
        <ele>44.770112</ele>
        <time>2025-08-26T09:45:38.559Z</time>
      </trkpt>
      <trkpt lat="51.786239" lon="7.257838">
        <ele>44.692435</ele>
        <time>2025-08-26T09:45:40.831Z</time>
      </trkpt>
      <trkpt lat="51.786754" lon="7.257344">
        <ele>44.357518</ele>
        <time>2025-08-26T09:45:50.440Z</time>
      </trkpt>
      <trkpt lat="51.786842" lon="7.256926">
        <ele>44.315792</ele>
        <time>2025-08-26T09:45:54.916Z</time>
      </trkpt>
      <trkpt lat="51.786898" lon="7.256697">
        <ele>44.317535</ele>
        <time>2025-08-26T09:45:57.541Z</time>
      </trkpt>
      <trkpt lat="51.786963" lon="7.256415">
        <ele>44.319664</ele>
        <time>2025-08-26T09:46:00.492Z</time>
      </trkpt>
      <trkpt lat="51.788432" lon="7.256329">
        <ele>44.618934</ele>
        <time>2025-08-26T09:46:28.167Z</time>
      </trkpt>
      <trkpt lat="51.789144" lon="7.256328">
        <ele>45.611207</ele>
        <time>2025-08-26T09:46:45.645Z</time>
      </trkpt>
      <trkpt lat="51.789481" lon="7.256327">
        <ele>46.080865</ele>
        <time>2025-08-26T09:46:54.256Z</time>
      </trkpt>
      <trkpt lat="51.790556" lon="7.256229">
        <ele>47.164097</ele>
        <time>2025-08-26T09:47:19.796Z</time>
      </trkpt>
      <trkpt lat="51.793749" lon="7.257070">
        <ele>48.153407</ele>
        <time>2025-08-26T09:48:20.026Z</time>
      </trkpt>
      <trkpt lat="51.793826" lon="7.257090">
        <ele>48.133058</ele>
        <time>2025-08-26T09:48:21.366Z</time>
      </trkpt>
      <trkpt lat="51.797036" lon="7.257973">
        <ele>47.195792</ele>
        <time>2025-08-26T09:49:16.690Z</time>
      </trkpt>
      <trkpt lat="51.797919" lon="7.257762">
        <ele>46.922835</ele>
        <time>2025-08-26T09:49:32.504Z</time>
      </trkpt>
      <trkpt lat="51.798111" lon="7.257809">
        <ele>46.863601</ele>
        <time>2025-08-26T09:49:35.884Z</time>
      </trkpt>
      <trkpt lat="51.798257" lon="7.257928">
        <ele>46.813728</ele>
        <time>2025-08-26T09:49:38.738Z</time>
      </trkpt>
      <trkpt lat="51.800032" lon="7.260006">
        <ele>45.879473</ele>
        <time>2025-08-26T09:50:14.883Z</time>
      </trkpt>
      <trkpt lat="51.800099" lon="7.260081">
        <ele>45.840633</ele>
        <time>2025-08-26T09:50:16.285Z</time>
      </trkpt>
      <trkpt lat="51.801552" lon="7.261826">
        <ele>45.881605</ele>
        <time>2025-08-26T09:50:49.729Z</time>
      </trkpt>
      <trkpt lat="51.802908" lon="7.263400">
        <ele>46.052897</ele>
        <time>2025-08-26T09:51:19.632Z</time>
      </trkpt>
      <trkpt lat="51.802988" lon="7.263494">
        <ele>46.063341</ele>
        <time>2025-08-26T09:51:21.472Z</time>
      </trkpt>
      <trkpt lat="51.803869" lon="7.264564">
        <ele>46.213603</ele>
        <time>2025-08-26T09:51:42.321Z</time>
      </trkpt>
      <trkpt lat="51.804077" lon="7.264895">
        <ele>46.255242</ele>
        <time>2025-08-26T09:51:47.768Z</time>
      </trkpt>
      <trkpt lat="51.804102" lon="7.264941">
        <ele>46.260646</ele>
        <time>2025-08-26T09:51:48.448Z</time>
      </trkpt>
      <trkpt lat="51.804266" lon="7.264643">
        <ele>46.295844</ele>
        <time>2025-08-26T09:51:52.878Z</time>
      </trkpt>
      <trkpt lat="51.804374" lon="7.264533">
        <ele>46.314056</ele>
        <time>2025-08-26T09:51:55.125Z</time>
      </trkpt>
      <trkpt lat="51.804524" lon="7.264364">
        <ele>46.339563</ele>
        <time>2025-08-26T09:51:58.318Z</time>
      </trkpt>
      <trkpt lat="51.805300" lon="7.263721">
        <ele>46.260969</ele>
        <time>2025-08-26T09:52:13.508Z</time>
      </trkpt>
      <trkpt lat="51.805273" lon="7.263641">
        <ele>46.255889</ele>
        <time>2025-08-26T09:52:14.474Z</time>
      </trkpt>
      <trkpt lat="51.805227" lon="7.263546">
        <ele>46.249164</ele>
        <time>2025-08-26T09:52:15.736Z</time>
      </trkpt>
      <trkpt lat="51.804980" lon="7.263320">
        <ele>46.223584</ele>
        <time>2025-08-26T09:52:20.608Z</time>
      </trkpt>
      <trkpt lat="51.804804" lon="7.263073">
        <ele>46.202579</ele>
        <time>2025-08-26T09:52:24.675Z</time>
      </trkpt>
      <trkpt lat="51.804686" lon="7.262886">
        <ele>46.187687</ele>
        <time>2025-08-26T09:52:27.594Z</time>
      </trkpt>
      <trkpt lat="51.804582" lon="7.262715">
        <ele>46.187297</ele>
        <time>2025-08-26T09:52:30.241Z</time>
      </trkpt>
      <trkpt lat="51.802763" lon="7.259737">
        <ele>46.994681</ele>
        <time>2025-08-26T09:53:19.698Z</time>
      </trkpt>
      <trkpt lat="51.802596" lon="7.259462">
        <ele>47.095417</ele>
        <time>2025-08-26T09:53:24.485Z</time>
      </trkpt>
      <trkpt lat="51.802414" lon="7.259144">
        <ele>47.208663</ele>
        <time>2025-08-26T09:53:29.872Z</time>
      </trkpt>
      <trkpt lat="51.801960" lon="7.258109">
        <ele>47.462872</ele>
        <time>2025-08-26T09:53:45.410Z</time>
      </trkpt>
      <trkpt lat="51.801085" lon="7.256080">
        <ele>47.720538</ele>
        <time>2025-08-26T09:54:13.468Z</time>
      </trkpt>
      <trkpt lat="51.800146" lon="7.254024">
        <ele>47.448224</ele>
        <time>2025-08-26T09:54:40.803Z</time>
      </trkpt>
      <trkpt lat="51.799910" lon="7.253470">
        <ele>47.465977</ele>
        <time>2025-08-26T09:54:48.700Z</time>
      </trkpt>
      <trkpt lat="51.799390" lon="7.252321">
        <ele>47.631588</ele>
        <time>2025-08-26T09:55:05.811Z</time>
      </trkpt>
      <trkpt lat="51.798911" lon="7.251190">
        <ele>48.028447</ele>
        <time>2025-08-26T09:55:24.778Z</time>
      </trkpt>
      <trkpt lat="51.798836" lon="7.251043">
        <ele>48.208028</ele>
        <time>2025-08-26T09:55:27.609Z</time>
      </trkpt>
      <trkpt lat="51.795942" lon="7.244310">
        <ele>55.901293</ele>
        <time>2025-08-26T09:57:40.651Z</time>
      </trkpt>
      <trkpt lat="51.795423" lon="7.243923">
        <ele>55.977259</ele>
        <time>2025-08-26T09:57:54.144Z</time>
      </trkpt>
      <trkpt lat="51.794970" lon="7.243556">
        <ele>56.006864</ele>
        <time>2025-08-26T09:58:04.520Z</time>
      </trkpt>
      <trkpt lat="51.794614" lon="7.243285">
        <ele>56.029856</ele>
        <time>2025-08-26T09:58:11.900Z</time>
      </trkpt>
      <trkpt lat="51.794537" lon="7.243189">
        <ele>56.035537</ele>
        <time>2025-08-26T09:58:13.641Z</time>
      </trkpt>
      <trkpt lat="51.793251" lon="7.240617">
        <ele>54.397120</ele>
        <time>2025-08-26T09:58:49.710Z</time>
      </trkpt>
      <trkpt lat="51.793107" lon="7.240330">
        <ele>54.409893</ele>
        <time>2025-08-26T09:58:54.134Z</time>
      </trkpt>
      <trkpt lat="51.790766" lon="7.238486">
        <ele>53.631881</ele>
        <time>2025-08-26T09:59:49.005Z</time>
      </trkpt>
      <trkpt lat="51.791065" lon="7.238285">
        <ele>53.329470</ele>
        <time>2025-08-26T09:59:57.396Z</time>
      </trkpt>
      <trkpt lat="51.791146" lon="7.238125">
        <ele>53.210037</ele>
        <time>2025-08-26T10:00:00.626Z</time>
      </trkpt>
      <trkpt lat="51.791315" lon="7.237469">
        <ele>52.689600</ele>
        <time>2025-08-26T10:00:07.552Z</time>
      </trkpt>
      <trkpt lat="51.791721" lon="7.236884">
        <ele>51.658869</ele>
        <time>2025-08-26T10:00:16.079Z</time>
      </trkpt>
      <trkpt lat="51.791759" lon="7.236764">
        <ele>51.500831</ele>
        <time>2025-08-26T10:00:17.427Z</time>
      </trkpt>
      <trkpt lat="51.791934" lon="7.235771">
        <ele>50.290437</ele>
        <time>2025-08-26T10:00:28.262Z</time>
      </trkpt>
      <trkpt lat="51.792131" lon="7.234710">
        <ele>49.114903</ele>
        <time>2025-08-26T10:00:40.782Z</time>
      </trkpt>
      <trkpt lat="51.792387" lon="7.233650">
        <ele>48.105659</ele>
        <time>2025-08-26T10:00:52.991Z</time>
      </trkpt>
      <trkpt lat="51.792734" lon="7.232474">
        <ele>46.950059</ele>
        <time>2025-08-26T10:01:06.394Z</time>
      </trkpt>
      <trkpt lat="51.792849" lon="7.232203">
        <ele>46.809488</ele>
        <time>2025-08-26T10:01:09.835Z</time>
      </trkpt>
      <trkpt lat="51.792963" lon="7.231900">
        <ele>46.677707</ele>
        <time>2025-08-26T10:01:13.641Z</time>
      </trkpt>
      <trkpt lat="51.793059" lon="7.231483">
        <ele>46.512377</ele>
        <time>2025-08-26T10:01:18.574Z</time>
      </trkpt>
      <trkpt lat="51.793105" lon="7.231169">
        <ele>46.392476</ele>
        <time>2025-08-26T10:01:22.269Z</time>
      </trkpt>
      <trkpt lat="51.793448" lon="7.230162">
        <ele>45.965319</ele>
        <time>2025-08-26T10:01:36.463Z</time>
      </trkpt>
      <trkpt lat="51.793646" lon="7.230012">
        <ele>45.834886</ele>
        <time>2025-08-26T10:01:40.898Z</time>
      </trkpt>
      <trkpt lat="51.793751" lon="7.229988">
        <ele>45.786742</ele>
        <time>2025-08-26T10:01:42.992Z</time>
      </trkpt>
      <trkpt lat="51.793855" lon="7.230026">
        <ele>45.738336</ele>
        <time>2025-08-26T10:01:45.069Z</time>
      </trkpt>
      <trkpt lat="51.793934" lon="7.230089">
        <ele>45.698345</ele>
        <time>2025-08-26T10:01:46.768Z</time>
      </trkpt>
      <trkpt lat="51.794221" lon="7.230671">
        <ele>45.489338</ele>
        <time>2025-08-26T10:01:55.421Z</time>
      </trkpt>
      <trkpt lat="51.794608" lon="7.231297">
        <ele>45.240811</ele>
        <time>2025-08-26T10:02:05.437Z</time>
      </trkpt>
      <trkpt lat="51.794773" lon="7.231916">
        <ele>45.051547</ele>
        <time>2025-08-26T10:02:13.047Z</time>
      </trkpt>
      <trkpt lat="51.795591" lon="7.233105">
        <ele>44.863051</ele>
        <time>2025-08-26T10:02:33.722Z</time>
      </trkpt>
      <trkpt lat="51.795777" lon="7.233513">
        <ele>44.815068</ele>
        <time>2025-08-26T10:02:39.893Z</time>
      </trkpt>
      <trkpt lat="51.795946" lon="7.233743">
        <ele>44.781256</ele>
        <time>2025-08-26T10:02:44.432Z</time>
      </trkpt>
      <trkpt lat="51.796121" lon="7.233911">
        <ele>44.750104</ele>
        <time>2025-08-26T10:02:48.761Z</time>
      </trkpt>
      <trkpt lat="51.796602" lon="7.234598">
        <ele>45.334899</ele>
        <time>2025-08-26T10:03:03.645Z</time>
      </trkpt>
      <trkpt lat="51.797214" lon="7.235659">
        <ele>46.195579</ele>
        <time>2025-08-26T10:03:26.430Z</time>
      </trkpt>
      <trkpt lat="51.797489" lon="7.236075">
        <ele>46.469574</ele>
        <time>2025-08-26T10:03:35.391Z</time>
      </trkpt>
      <trkpt lat="51.798132" lon="7.237013">
        <ele>46.454374</ele>
        <time>2025-08-26T10:03:52.741Z</time>
      </trkpt>
      <trkpt lat="51.798547" lon="7.237619">
        <ele>46.444560</ele>
        <time>2025-08-26T10:04:02.726Z</time>
      </trkpt>
      <trkpt lat="51.798805" lon="7.237904">
        <ele>46.491902</ele>
        <time>2025-08-26T10:04:08.552Z</time>
      </trkpt>
      <trkpt lat="51.799019" lon="7.238219">
        <ele>47.027162</ele>
        <time>2025-08-26T10:04:14.540Z</time>
      </trkpt>
      <trkpt lat="51.799257" lon="7.238483">
        <ele>47.560996</ele>
        <time>2025-08-26T10:04:21.637Z</time>
      </trkpt>
      <trkpt lat="51.799399" lon="7.238588">
        <ele>47.849802</ele>
        <time>2025-08-26T10:04:25.914Z</time>
      </trkpt>
      <trkpt lat="51.799577" lon="7.238662">
        <ele>48.189745</ele>
        <time>2025-08-26T10:04:31.285Z</time>
      </trkpt>
      <trkpt lat="51.799872" lon="7.238667">
        <ele>48.735418</ele>
        <time>2025-08-26T10:04:40.756Z</time>
      </trkpt>
      <trkpt lat="51.800398" lon="7.238765">
        <ele>49.714764</ele>
        <time>2025-08-26T10:04:58.324Z</time>
      </trkpt>
      <trkpt lat="51.800649" lon="7.238872">
        <ele>49.932929</ele>
        <time>2025-08-26T10:05:06.612Z</time>
      </trkpt>
      <trkpt lat="51.800948" lon="7.239008">
        <ele>50.156198</ele>
        <time>2025-08-26T10:05:15.883Z</time>
      </trkpt>
      <trkpt lat="51.802504" lon="7.240103">
        <ele>50.719625</ele>
        <time>2025-08-26T10:05:48.398Z</time>
      </trkpt>
      <trkpt lat="51.802686" lon="7.240105">
        <ele>50.579291</ele>
        <time>2025-08-26T10:05:51.458Z</time>
      </trkpt>
      <trkpt lat="51.802847" lon="7.240150">
        <ele>50.453312</ele>
        <time>2025-08-26T10:05:54.256Z</time>
      </trkpt>
      <trkpt lat="51.802990" lon="7.240234">
        <ele>50.336004</ele>
        <time>2025-08-26T10:05:56.885Z</time>
      </trkpt>
      <trkpt lat="51.803132" lon="7.240324">
        <ele>50.218406</ele>
        <time>2025-08-26T10:05:59.553Z</time>
      </trkpt>
      <trkpt lat="51.803604" lon="7.240749">
        <ele>49.801862</ele>
        <time>2025-08-26T10:06:09.296Z</time>
      </trkpt>
      <trkpt lat="51.804124" lon="7.241237">
        <ele>49.583460</ele>
        <time>2025-08-26T10:06:20.789Z</time>
      </trkpt>
      <trkpt lat="51.804464" lon="7.241386">
        <ele>49.511106</ele>
        <time>2025-08-26T10:06:27.989Z</time>
      </trkpt>
      <trkpt lat="51.804640" lon="7.241379">
        <ele>49.474946</ele>
        <time>2025-08-26T10:06:31.706Z</time>
      </trkpt>
      <trkpt lat="51.804790" lon="7.240719">
        <ele>49.385640</ele>
        <time>2025-08-26T10:06:40.101Z</time>
      </trkpt>
      <trkpt lat="51.804856" lon="7.240528">
        <ele>49.357851</ele>
        <time>2025-08-26T10:06:42.592Z</time>
      </trkpt>
      <trkpt lat="51.805796" lon="7.241377">
        <ele>48.720882</ele>
        <time>2025-08-26T10:07:00.905Z</time>
      </trkpt>
      <trkpt lat="51.805747" lon="7.241872">
        <ele>48.498055</ele>
        <time>2025-08-26T10:07:09.415Z</time>
      </trkpt>
      <trkpt lat="51.805780" lon="7.242317">
        <ele>48.298836</ele>
        <time>2025-08-26T10:07:17.092Z</time>
      </trkpt>
      <trkpt lat="51.805822" lon="7.242477">
        <ele>48.221573</ele>
        <time>2025-08-26T10:07:20.079Z</time>
      </trkpt>
      <trkpt lat="51.806174" lon="7.243195">
        <ele>48.025575</ele>
        <time>2025-08-26T10:07:36.021Z</time>
      </trkpt>
      <trkpt lat="51.806243" lon="7.243382">
        <ele>48.033244</ele>
        <time>2025-08-26T10:07:39.910Z</time>
      </trkpt>
      <trkpt lat="51.806637" lon="7.244431">
        <ele>48.076472</ele>
        <time>2025-08-26T10:08:02.849Z</time>
      </trkpt>
      <trkpt lat="51.807337" lon="7.246475">
        <ele>48.238211</ele>
        <time>2025-08-26T10:08:48.537Z</time>
      </trkpt>
      <trkpt lat="51.807421" lon="7.246962">
        <ele>48.286604</ele>
        <time>2025-08-26T10:08:57.955Z</time>
      </trkpt>
      <trkpt lat="51.807471" lon="7.246927">
        <ele>48.295038</ele>
        <time>2025-08-26T10:08:58.981Z</time>
      </trkpt>
      <trkpt lat="51.807641" lon="7.246832">
        <ele>48.322880</ele>
        <time>2025-08-26T10:09:02.327Z</time>
      </trkpt>
      <trkpt lat="51.808166" lon="7.246621">
        <ele>48.369337</ele>
        <time>2025-08-26T10:09:12.178Z</time>
      </trkpt>
      <trkpt lat="51.808852" lon="7.246330">
        <ele>48.218021</ele>
        <time>2025-08-26T10:09:24.830Z</time>
      </trkpt>
      <trkpt lat="51.809382" lon="7.245709">
        <ele>48.078385</ele>
        <time>2025-08-26T10:09:36.622Z</time>
      </trkpt>
      <trkpt lat="51.809402" lon="7.245764">
        <ele>48.069968</ele>
        <time>2025-08-26T10:09:37.332Z</time>
      </trkpt>
      <trkpt lat="51.809446" lon="7.245883">
        <ele>48.051677</ele>
        <time>2025-08-26T10:09:38.872Z</time>
      </trkpt>
      <trkpt lat="51.809489" lon="7.246002">
        <ele>48.033494</ele>
        <time>2025-08-26T10:09:40.415Z</time>
      </trkpt>
      <trkpt lat="51.809726" lon="7.245609">
        <ele>47.953485</ele>
        <time>2025-08-26T10:09:46.273Z</time>
      </trkpt>
      <trkpt lat="51.809977" lon="7.245183">
        <ele>47.863082</ele>
        <time>2025-08-26T10:09:52.544Z</time>
      </trkpt>
      <trkpt lat="51.810070" lon="7.245073">
        <ele>47.834454</ele>
        <time>2025-08-26T10:09:54.543Z</time>
      </trkpt>
      <trkpt lat="51.810310" lon="7.244939">
        <ele>47.771367</ele>
        <time>2025-08-26T10:09:58.936Z</time>
      </trkpt>
      <trkpt lat="51.810454" lon="7.244910">
        <ele>47.735311</ele>
        <time>2025-08-26T10:10:01.404Z</time>
      </trkpt>
      <trkpt lat="51.810567" lon="7.244936">
        <ele>47.706950</ele>
        <time>2025-08-26T10:10:03.372Z</time>
      </trkpt>
      <trkpt lat="51.811098" lon="7.245209">
        <ele>47.568505</ele>
        <time>2025-08-26T10:10:12.990Z</time>
      </trkpt>
      <trkpt lat="51.812128" lon="7.242760">
        <ele>46.978105</ele>
        <time>2025-08-26T10:10:44.281Z</time>
      </trkpt>
      <trkpt lat="51.812202" lon="7.242539">
        <ele>46.933405</ele>
        <time>2025-08-26T10:10:46.920Z</time>
      </trkpt>
      <trkpt lat="51.812522" lon="7.241134">
        <ele>46.667229</ele>
        <time>2025-08-26T10:11:02.715Z</time>
      </trkpt>
      <trkpt lat="51.812859" lon="7.239755">
        <ele>46.397173</ele>
        <time>2025-08-26T10:11:20.327Z</time>
      </trkpt>
      <trkpt lat="51.812954" lon="7.239368">
        <ele>46.314783</ele>
        <time>2025-08-26T10:11:25.331Z</time>
      </trkpt>
      <trkpt lat="51.813222" lon="7.238866">
        <ele>46.183546</ele>
        <time>2025-08-26T10:11:33.245Z</time>
      </trkpt>
      <trkpt lat="51.813461" lon="7.238453">
        <ele>46.071614</ele>
        <time>2025-08-26T10:11:39.892Z</time>
      </trkpt>
      <trkpt lat="51.813561" lon="7.238232">
        <ele>46.017425</ele>
        <time>2025-08-26T10:11:43.101Z</time>
      </trkpt>
      <trkpt lat="51.813783" lon="7.237712">
        <ele>45.892387</ele>
        <time>2025-08-26T10:11:50.449Z</time>
      </trkpt>
      <trkpt lat="51.813976" lon="7.237203">
        <ele>45.745891</ele>
        <time>2025-08-26T10:11:57.335Z</time>
      </trkpt>
      <trkpt lat="51.814593" lon="7.234939">
        <ele>45.185767</ele>
        <time>2025-08-26T10:12:25.927Z</time>
      </trkpt>
      <trkpt lat="51.815197" lon="7.232932">
        <ele>45.607358</ele>
        <time>2025-08-26T10:12:54.688Z</time>
      </trkpt>
      <trkpt lat="51.816249" lon="7.229648">
        <ele>47.260004</ele>
        <time>2025-08-26T10:13:48.955Z</time>
      </trkpt>
      <trkpt lat="51.817269" lon="7.226247">
        <ele>47.379357</ele>
        <time>2025-08-26T10:14:29.374Z</time>
      </trkpt>
      <trkpt lat="51.817999" lon="7.223827">
        <ele>47.784851</ele>
        <time>2025-08-26T10:15:01.776Z</time>
      </trkpt>
      <trkpt lat="51.818076" lon="7.223502">
        <ele>47.863988</ele>
        <time>2025-08-26T10:15:06.268Z</time>
      </trkpt>
      <trkpt lat="51.818396" lon="7.221033">
        <ele>48.228048</ele>
        <time>2025-08-26T10:15:35.830Z</time>
      </trkpt>
      <trkpt lat="51.818376" lon="7.220471">
        <ele>48.217549</ele>
        <time>2025-08-26T10:15:41.693Z</time>
      </trkpt>
      <trkpt lat="51.818204" lon="7.219561">
        <ele>48.199802</ele>
        <time>2025-08-26T10:15:51.798Z</time>
      </trkpt>
      <trkpt lat="51.818215" lon="7.219362">
        <ele>48.196075</ele>
        <time>2025-08-26T10:15:53.938Z</time>
      </trkpt>
      <trkpt lat="51.818191" lon="7.219139">
        <ele>48.191854</ele>
        <time>2025-08-26T10:15:56.369Z</time>
      </trkpt>
      <trkpt lat="51.818081" lon="7.218934">
        <ele>48.246917</ele>
        <time>2025-08-26T10:15:59.486Z</time>
      </trkpt>
      <trkpt lat="51.817867" lon="7.217910">
        <ele>48.648603</ele>
        <time>2025-08-26T10:16:13.268Z</time>
      </trkpt>
      <trkpt lat="51.817404" lon="7.215644">
        <ele>49.341437</ele>
        <time>2025-08-26T10:16:45.715Z</time>
      </trkpt>
      <trkpt lat="51.817207" lon="7.214788">
        <ele>49.431904</ele>
        <time>2025-08-26T10:16:56.627Z</time>
      </trkpt>
      <trkpt lat="51.816854" lon="7.213973">
        <ele>49.530469</ele>
        <time>2025-08-26T10:17:07.794Z</time>
      </trkpt>
      <trkpt lat="51.816533" lon="7.213497">
        <ele>49.423495</ele>
        <time>2025-08-26T10:17:15.550Z</time>
      </trkpt>
      <trkpt lat="51.815666" lon="7.212633">
        <ele>48.885549</ele>
        <time>2025-08-26T10:17:33.039Z</time>
      </trkpt>
      <trkpt lat="51.815563" lon="7.212482">
        <ele>48.812117</ele>
        <time>2025-08-26T10:17:35.454Z</time>
      </trkpt>
      <trkpt lat="51.815447" lon="7.212283">
        <ele>48.722794</ele>
        <time>2025-08-26T10:17:38.417Z</time>
      </trkpt>
      <trkpt lat="51.815116" lon="7.211552">
        <ele>48.494498</ele>
        <time>2025-08-26T10:17:48.128Z</time>
      </trkpt>
      <trkpt lat="51.814454" lon="7.209751">
        <ele>48.064365</ele>
        <time>2025-08-26T10:18:11.125Z</time>
      </trkpt>
      <trkpt lat="51.814382" lon="7.209574">
        <ele>48.020869</ele>
        <time>2025-08-26T10:18:13.510Z</time>
      </trkpt>
      <trkpt lat="51.813912" lon="7.208323">
        <ele>48.305906</ele>
        <time>2025-08-26T10:18:31.091Z</time>
      </trkpt>
      <trkpt lat="51.810777" lon="7.199977">
        <ele>50.550582</ele>
        <time>2025-08-26T10:20:31.935Z</time>
      </trkpt>
      <trkpt lat="51.810403" lon="7.198927">
        <ele>51.054372</ele>
        <time>2025-08-26T10:20:48.319Z</time>
      </trkpt>
      <trkpt lat="51.810342" lon="7.198609">
        <ele>51.216385</ele>
        <time>2025-08-26T10:20:53.004Z</time>
      </trkpt>
      <trkpt lat="51.810313" lon="7.198289">
        <ele>51.373760</ele>
        <time>2025-08-26T10:20:57.606Z</time>
      </trkpt>
      <trkpt lat="51.810322" lon="7.197770">
        <ele>51.626401</ele>
        <time>2025-08-26T10:21:04.851Z</time>
      </trkpt>
      <trkpt lat="51.810443" lon="7.196693">
        <ele>52.105862</ele>
        <time>2025-08-26T10:21:18.806Z</time>
      </trkpt>
      <trkpt lat="51.810819" lon="7.193633">
        <ele>52.143416</ele>
        <time>2025-08-26T10:21:54.574Z</time>
      </trkpt>
      <trkpt lat="51.812716" lon="7.194338">
        <ele>51.250350</ele>
        <time>2025-08-26T10:22:27.165Z</time>
      </trkpt>
      <trkpt lat="51.813106" lon="7.194452">
        <ele>51.013819</ele>
        <time>2025-08-26T10:22:33.625Z</time>
      </trkpt>
      <trkpt lat="51.813362" lon="7.194451">
        <ele>50.861032</ele>
        <time>2025-08-26T10:22:37.818Z</time>
      </trkpt>
      <trkpt lat="51.813673" lon="7.194353">
        <ele>50.671932</ele>
        <time>2025-08-26T10:22:43.041Z</time>
      </trkpt>
      <trkpt lat="51.813991" lon="7.194116">
        <ele>50.462966</ele>
        <time>2025-08-26T10:22:48.862Z</time>
      </trkpt>
      <trkpt lat="51.814293" lon="7.193730">
        <ele>50.325142</ele>
        <time>2025-08-26T10:22:55.307Z</time>
      </trkpt>
      <trkpt lat="51.816042" lon="7.190821">
        <ele>49.941838</ele>
        <time>2025-08-26T10:23:39.001Z</time>
      </trkpt>
      <trkpt lat="51.816583" lon="7.189920">
        <ele>49.931807</ele>
        <time>2025-08-26T10:23:52.769Z</time>
      </trkpt>
      <trkpt lat="51.817121" lon="7.189039">
        <ele>50.202852</ele>
        <time>2025-08-26T10:24:07.819Z</time>
      </trkpt>
      <trkpt lat="51.817315" lon="7.188791">
        <ele>50.297310</ele>
        <time>2025-08-26T10:24:12.859Z</time>
      </trkpt>
      <trkpt lat="51.817545" lon="7.188588">
        <ele>50.397401</ele>
        <time>2025-08-26T10:24:18.285Z</time>
      </trkpt>
      <trkpt lat="51.818919" lon="7.180460">
        <ele>51.705753</ele>
        <time>2025-08-26T10:25:55.513Z</time>
      </trkpt>
      <trkpt lat="51.819161" lon="7.178755">
        <ele>51.851592</ele>
        <time>2025-08-26T10:26:16.064Z</time>
      </trkpt>
      <trkpt lat="51.819213" lon="7.177669">
        <ele>51.777767</ele>
        <time>2025-08-26T10:26:28.112Z</time>
      </trkpt>
      <trkpt lat="51.819950" lon="7.172746">
        <ele>50.835043</ele>
        <time>2025-08-26T10:27:21.166Z</time>
      </trkpt>
      <trkpt lat="51.820419" lon="7.169565">
        <ele>50.513137</ele>
        <time>2025-08-26T10:27:55.775Z</time>
      </trkpt>
      <trkpt lat="51.820435" lon="7.169287">
        <ele>50.533889</ele>
        <time>2025-08-26T10:27:59.008Z</time>
      </trkpt>
      <trkpt lat="51.820421" lon="7.168989">
        <ele>50.556103</ele>
        <time>2025-08-26T10:28:02.533Z</time>
      </trkpt>
      <trkpt lat="51.820346" lon="7.168519">
        <ele>50.592181</ele>
        <time>2025-08-26T10:28:08.406Z</time>
      </trkpt>
      <trkpt lat="51.820253" lon="7.168210">
        <ele>50.617726</ele>
        <time>2025-08-26T10:28:12.681Z</time>
      </trkpt>
      <trkpt lat="51.817986" lon="7.163048">
        <ele>52.730103</ele>
        <time>2025-08-26T10:29:31.788Z</time>
      </trkpt>
      <trkpt lat="51.818109" lon="7.162648">
        <ele>52.755182</ele>
        <time>2025-08-26T10:29:36.795Z</time>
      </trkpt>
      <trkpt lat="51.818350" lon="7.161624">
        <ele>52.816692</ele>
        <time>2025-08-26T10:29:48.728Z</time>
      </trkpt>
      <trkpt lat="51.819382" lon="7.155632">
        <ele>53.011835</ele>
        <time>2025-08-26T10:30:56.925Z</time>
      </trkpt>
      <trkpt lat="51.819438" lon="7.155095">
        <ele>53.056478</ele>
        <time>2025-08-26T10:31:03.657Z</time>
      </trkpt>
      <trkpt lat="51.819374" lon="7.153397">
        <ele>53.470659</ele>
        <time>2025-08-26T10:31:24.559Z</time>
      </trkpt>
      <trkpt lat="51.819338" lon="7.152728">
        <ele>53.648991</ele>
        <time>2025-08-26T10:31:32.731Z</time>
      </trkpt>
      <trkpt lat="51.819204" lon="7.151957">
        <ele>53.855958</ele>
        <time>2025-08-26T10:31:42.148Z</time>
      </trkpt>
      <trkpt lat="51.818451" lon="7.149482">
        <ele>54.321781</ele>
        <time>2025-08-26T10:32:14.354Z</time>
      </trkpt>
      <trkpt lat="51.818444" lon="7.149458">
        <ele>54.326262</ele>
        <time>2025-08-26T10:32:14.681Z</time>
      </trkpt>
      <trkpt lat="51.815921" lon="7.139322">
        <ele>56.590049</ele>
        <time>2025-08-26T10:34:29.092Z</time>
      </trkpt>
      <trkpt lat="51.815881" lon="7.139153">
        <ele>56.627297</ele>
        <time>2025-08-26T10:34:31.282Z</time>
      </trkpt>
      <trkpt lat="51.815830" lon="7.138743">
        <ele>56.713379</ele>
        <time>2025-08-26T10:34:36.155Z</time>
      </trkpt>
      <trkpt lat="51.815651" lon="7.137288">
        <ele>57.136988</ele>
        <time>2025-08-26T10:34:53.612Z</time>
      </trkpt>
      <trkpt lat="51.815487" lon="7.136331">
        <ele>57.431342</ele>
        <time>2025-08-26T10:35:05.737Z</time>
      </trkpt>
      <trkpt lat="51.815313" lon="7.135514">
        <ele>57.726038</ele>
        <time>2025-08-26T10:35:16.724Z</time>
      </trkpt>
      <trkpt lat="51.814763" lon="7.133962">
        <ele>58.528613</ele>
        <time>2025-08-26T10:35:40.108Z</time>
      </trkpt>
      <trkpt lat="51.814310" lon="7.132613">
        <ele>59.075670</ele>
        <time>2025-08-26T10:35:59.320Z</time>
      </trkpt>
      <trkpt lat="51.814092" lon="7.131484">
        <ele>59.355435</ele>
        <time>2025-08-26T10:36:13.425Z</time>
      </trkpt>
      <trkpt lat="51.813790" lon="7.130320">
        <ele>59.642623</ele>
        <time>2025-08-26T10:36:27.977Z</time>
      </trkpt>
      <trkpt lat="51.813629" lon="7.129818">
        <ele>59.744745</ele>
        <time>2025-08-26T10:36:34.447Z</time>
      </trkpt>
      <trkpt lat="51.813153" lon="7.128362">
        <ele>60.042166</ele>
        <time>2025-08-26T10:36:53.765Z</time>
      </trkpt>
      <trkpt lat="51.812524" lon="7.126599">
        <ele>60.341764</ele>
        <time>2025-08-26T10:37:18.079Z</time>
      </trkpt>
      <trkpt lat="51.810821" lon="7.122706">
        <ele>60.519407</ele>
        <time>2025-08-26T10:38:10.987Z</time>
      </trkpt>
      <trkpt lat="51.810701" lon="7.122286">
        <ele>60.463360</ele>
        <time>2025-08-26T10:38:15.967Z</time>
      </trkpt>
      <trkpt lat="51.810599" lon="7.121717">
        <ele>60.391596</ele>
        <time>2025-08-26T10:38:22.282Z</time>
      </trkpt>
      <trkpt lat="51.810458" lon="7.121884">
        <ele>60.357355</ele>
        <time>2025-08-26T10:38:25.287Z</time>
      </trkpt>
      <trkpt lat="51.809405" lon="7.125105">
        <ele>60.152450</ele>
        <time>2025-08-26T10:39:03.996Z</time>
      </trkpt>
      <trkpt lat="51.809390" lon="7.125152">
        <ele>60.150919</ele>
        <time>2025-08-26T10:39:04.636Z</time>
      </trkpt>
      <trkpt lat="51.809377" lon="7.125204">
        <ele>60.149296</ele>
        <time>2025-08-26T10:39:05.319Z</time>
      </trkpt>
      <trkpt lat="51.809051" lon="7.126551">
        <ele>60.792822</ele>
        <time>2025-08-26T10:39:24.632Z</time>
      </trkpt>
      <trkpt lat="51.808836" lon="7.127030">
        <ele>61.110609</ele>
        <time>2025-08-26T10:39:33.073Z</time>
      </trkpt>
      <trkpt lat="51.808571" lon="7.127054">
        <ele>61.341079</ele>
        <time>2025-08-26T10:39:39.112Z</time>
      </trkpt>
      <trkpt lat="51.806040" lon="7.125285">
        <ele>62.876863</ele>
        <time>2025-08-26T10:40:34.466Z</time>
      </trkpt>
      <trkpt lat="51.805959" lon="7.125174">
        <ele>62.898711</ele>
        <time>2025-08-26T10:40:36.390Z</time>
      </trkpt>
      <trkpt lat="51.805681" lon="7.124791">
        <ele>62.973861</ele>
        <time>2025-08-26T10:40:42.932Z</time>
      </trkpt>
      <trkpt lat="51.805177" lon="7.123933">
        <ele>63.124445</ele>
        <time>2025-08-26T10:40:55.896Z</time>
      </trkpt>
      <trkpt lat="51.804580" lon="7.123354">
        <ele>63.198749</ele>
        <time>2025-08-26T10:41:09.006Z</time>
      </trkpt>
      <trkpt lat="51.802895" lon="7.122467">
        <ele>63.147612</ele>
        <time>2025-08-26T10:41:41.035Z</time>
      </trkpt>
      <trkpt lat="51.802484" lon="7.122250">
        <ele>63.031594</ele>
        <time>2025-08-26T10:41:48.122Z</time>
      </trkpt>
      <trkpt lat="51.801221" lon="7.121594">
        <ele>63.490600</ele>
        <time>2025-08-26T10:42:10.490Z</time>
      </trkpt>
      <trkpt lat="51.799991" lon="7.121053">
        <ele>64.989446</ele>
        <time>2025-08-26T10:42:42.726Z</time>
      </trkpt>
      <trkpt lat="51.799053" lon="7.120604">
        <ele>66.747203</ele>
        <time>2025-08-26T10:43:09.529Z</time>
      </trkpt>
      <trkpt lat="51.798755" lon="7.120607">
        <ele>67.282679</ele>
        <time>2025-08-26T10:43:16.809Z</time>
      </trkpt>
      <trkpt lat="51.798555" lon="7.120710">
        <ele>67.659839</ele>
        <time>2025-08-26T10:43:21.686Z</time>
      </trkpt>
      <trkpt lat="51.798463" lon="7.120757">
        <ele>67.833205</ele>
        <time>2025-08-26T10:43:23.879Z</time>
      </trkpt>
      <trkpt lat="51.797748" lon="7.121646">
        <ele>68.813459</ele>
        <time>2025-08-26T10:43:42.527Z</time>
      </trkpt>
      <trkpt lat="51.796066" lon="7.123753">
        <ele>71.873718</ele>
        <time>2025-08-26T10:44:28.332Z</time>
      </trkpt>
      <trkpt lat="51.795690" lon="7.124148">
        <ele>72.747033</ele>
        <time>2025-08-26T10:44:40.641Z</time>
      </trkpt>
      <trkpt lat="51.795505" lon="7.124262">
        <ele>73.132631</ele>
        <time>2025-08-26T10:44:46.499Z</time>
      </trkpt>
      <trkpt lat="51.793626" lon="7.124796">
        <ele>82.706192</ele>
        <time>2025-08-26T10:45:58.159Z</time>
      </trkpt>
      <trkpt lat="51.791582" lon="7.125367">
        <ele>99.319228</ele>
        <time>2025-08-26T10:47:45.214Z</time>
      </trkpt>
      <trkpt lat="51.791443" lon="7.125285">
        <ele>100.532684</ele>
        <time>2025-08-26T10:47:52.943Z</time>
      </trkpt>
      <trkpt lat="51.791350" lon="7.125113">
        <ele>101.691526</ele>
        <time>2025-08-26T10:48:00.289Z</time>
      </trkpt>
      <trkpt lat="51.791151" lon="7.124362">
        <ele>105.835875</ele>
        <time>2025-08-26T10:48:26.508Z</time>
      </trkpt>
      <trkpt lat="51.790947" lon="7.124212">
        <ele>107.673780</ele>
        <time>2025-08-26T10:48:38.085Z</time>
      </trkpt>
      <trkpt lat="51.789885" lon="7.124032">
        <ele>114.923963</ele>
        <time>2025-08-26T10:49:29.555Z</time>
      </trkpt>
      <trkpt lat="51.789462" lon="7.124077">
        <ele>117.310251</ele>
        <time>2025-08-26T10:49:48.005Z</time>
      </trkpt>
      <trkpt lat="51.788854" lon="7.124271">
        <ele>120.798811</ele>
        <time>2025-08-26T10:50:10.937Z</time>
      </trkpt>
      <trkpt lat="51.788327" lon="7.124667">
        <ele>121.950813</ele>
        <time>2025-08-26T10:50:26.648Z</time>
      </trkpt>
      <trkpt lat="51.788023" lon="7.125185">
        <ele>122.165700</ele>
        <time>2025-08-26T10:50:35.829Z</time>
      </trkpt>
      <trkpt lat="51.787917" lon="7.125486">
        <ele>122.269936</ele>
        <time>2025-08-26T10:50:39.627Z</time>
      </trkpt>
      <trkpt lat="51.787859" lon="7.125800">
        <ele>122.368557</ele>
        <time>2025-08-26T10:50:43.037Z</time>
      </trkpt>
      <trkpt lat="51.787819" lon="7.126615">
        <ele>122.614600</ele>
        <time>2025-08-26T10:50:51.023Z</time>
      </trkpt>
      <trkpt lat="51.787919" lon="7.127135">
        <ele>121.820360</ele>
        <time>2025-08-26T10:50:56.046Z</time>
      </trkpt>
      <trkpt lat="51.788113" lon="7.127797">
        <ele>120.661166</ele>
        <time>2025-08-26T10:51:02.637Z</time>
      </trkpt>
      <trkpt lat="51.788257" lon="7.128546">
        <ele>119.419991</ele>
        <time>2025-08-26T10:51:09.426Z</time>
      </trkpt>
      <trkpt lat="51.788217" lon="7.129190">
        <ele>118.395776</ele>
        <time>2025-08-26T10:51:14.826Z</time>
      </trkpt>
      <trkpt lat="51.788124" lon="7.129727">
        <ele>117.402897</ele>
        <time>2025-08-26T10:51:19.446Z</time>
      </trkpt>
      <trkpt lat="51.787933" lon="7.130608">
        <ele>115.606190</ele>
        <time>2025-08-26T10:51:27.211Z</time>
      </trkpt>
      <trkpt lat="51.787766" lon="7.131507">
        <ele>113.799623</ele>
        <time>2025-08-26T10:51:35.198Z</time>
      </trkpt>
      <trkpt lat="51.787764" lon="7.131942">
        <ele>112.962390</ele>
        <time>2025-08-26T10:51:38.992Z</time>
      </trkpt>
      <trkpt lat="51.787812" lon="7.132308">
        <ele>112.283416</ele>
        <time>2025-08-26T10:51:42.326Z</time>
      </trkpt>
      <trkpt lat="51.788576" lon="7.136700">
        <ele>104.561915</ele>
        <time>2025-08-26T10:52:22.711Z</time>
      </trkpt>
      <trkpt lat="51.788642" lon="7.137709">
        <ele>102.528340</ele>
        <time>2025-08-26T10:52:30.837Z</time>
      </trkpt>
      <trkpt lat="51.788682" lon="7.139490">
        <ele>98.345766</ele>
        <time>2025-08-26T10:52:45.023Z</time>
      </trkpt>
      <trkpt lat="51.788881" lon="7.141206">
        <ele>94.736281</ele>
        <time>2025-08-26T10:52:59.884Z</time>
      </trkpt>
      <trkpt lat="51.789129" lon="7.142555">
        <ele>92.980355</ele>
        <time>2025-08-26T10:53:12.835Z</time>
      </trkpt>
      <trkpt lat="51.789140" lon="7.142622">
        <ele>92.893864</ele>
        <time>2025-08-26T10:53:13.460Z</time>
      </trkpt>
      <trkpt lat="51.788710" lon="7.143032">
        <ele>91.886881</ele>
        <time>2025-08-26T10:53:20.885Z</time>
      </trkpt>
      <trkpt lat="51.788639" lon="7.144364">
        <ele>90.720802</ele>
        <time>2025-08-26T10:53:33.802Z</time>
      </trkpt>
      <trkpt lat="51.788580" lon="7.145010">
        <ele>90.181294</ele>
        <time>2025-08-26T10:53:40.262Z</time>
      </trkpt>
      <trkpt lat="51.788295" lon="7.146504">
        <ele>88.659161</ele>
        <time>2025-08-26T10:53:55.171Z</time>
      </trkpt>
      <trkpt lat="51.788025" lon="7.147165">
        <ele>87.639426</ele>
        <time>2025-08-26T10:54:02.158Z</time>
      </trkpt>
      <trkpt lat="51.787981" lon="7.147340">
        <ele>87.396238</ele>
        <time>2025-08-26T10:54:03.813Z</time>
      </trkpt>
      <trkpt lat="51.787941" lon="7.147823">
        <ele>86.768894</ele>
        <time>2025-08-26T10:54:08.129Z</time>
      </trkpt>
      <trkpt lat="51.787675" lon="7.148275">
        <ele>85.965736</ele>
        <time>2025-08-26T10:54:13.696Z</time>
      </trkpt>
      <trkpt lat="51.787560" lon="7.148596">
        <ele>85.472494</ele>
        <time>2025-08-26T10:54:17.028Z</time>
      </trkpt>
      <trkpt lat="51.787446" lon="7.148595">
        <ele>85.182753</ele>
        <time>2025-08-26T10:54:18.679Z</time>
      </trkpt>
      <trkpt lat="51.787143" lon="7.148457">
        <ele>84.382687</ele>
        <time>2025-08-26T10:54:23.249Z</time>
      </trkpt>
      <trkpt lat="51.786916" lon="7.148452">
        <ele>83.805702</ele>
        <time>2025-08-26T10:54:26.573Z</time>
      </trkpt>
      <trkpt lat="51.786864" lon="7.148470">
        <ele>83.670546</ele>
        <time>2025-08-26T10:54:27.367Z</time>
      </trkpt>
      <trkpt lat="51.786664" lon="7.148553">
        <ele>83.145755</ele>
        <time>2025-08-26T10:54:30.399Z</time>
      </trkpt>
      <trkpt lat="51.785826" lon="7.148535">
        <ele>81.015752</ele>
        <time>2025-08-26T10:54:42.126Z</time>
      </trkpt>
      <trkpt lat="51.784911" lon="7.148829">
        <ele>78.458400</ele>
        <time>2025-08-26T10:54:54.452Z</time>
      </trkpt>
      <trkpt lat="51.784816" lon="7.148861">
        <ele>78.192153</ele>
        <time>2025-08-26T10:54:55.754Z</time>
      </trkpt>
      <trkpt lat="51.784269" lon="7.149069">
        <ele>76.650397</ele>
        <time>2025-08-26T10:55:03.714Z</time>
      </trkpt>
      <trkpt lat="51.783845" lon="7.149230">
        <ele>76.297934</ele>
        <time>2025-08-26T10:55:10.760Z</time>
      </trkpt>
      <trkpt lat="51.783223" lon="7.149351">
        <ele>77.002890</ele>
        <time>2025-08-26T10:55:24.179Z</time>
      </trkpt>
      <trkpt lat="51.781820" lon="7.149338">
        <ele>78.294539</ele>
        <time>2025-08-26T10:56:01.554Z</time>
      </trkpt>
      <trkpt lat="51.781678" lon="7.149269">
        <ele>78.366498</ele>
        <time>2025-08-26T10:56:05.273Z</time>
      </trkpt>
      <trkpt lat="51.781512" lon="7.149119">
        <ele>78.458791</ele>
        <time>2025-08-26T10:56:09.753Z</time>
      </trkpt>
      <trkpt lat="51.781416" lon="7.149081">
        <ele>78.506756</ele>
        <time>2025-08-26T10:56:11.986Z</time>
      </trkpt>
      <trkpt lat="51.780766" lon="7.149047">
        <ele>78.822366</ele>
        <time>2025-08-26T10:56:23.745Z</time>
      </trkpt>
      <trkpt lat="51.780405" lon="7.148896">
        <ele>78.626549</ele>
        <time>2025-08-26T10:56:29.356Z</time>
      </trkpt>
      <trkpt lat="51.780324" lon="7.148938">
        <ele>78.377815</ele>
        <time>2025-08-26T10:56:30.597Z</time>
      </trkpt>
      <trkpt lat="51.780154" lon="7.149152">
        <ele>77.747764</ele>
        <time>2025-08-26T10:56:33.613Z</time>
      </trkpt>
      <trkpt lat="51.780052" lon="7.149186">
        <ele>77.443237</ele>
        <time>2025-08-26T10:56:35.037Z</time>
      </trkpt>
      <trkpt lat="51.779936" lon="7.149155">
        <ele>77.099446</ele>
        <time>2025-08-26T10:56:36.607Z</time>
      </trkpt>
      <trkpt lat="51.779222" lon="7.148441">
        <ele>74.644427</ele>
        <time>2025-08-26T10:56:47.615Z</time>
      </trkpt>
      <trkpt lat="51.779029" lon="7.148328">
        <ele>74.044206</ele>
        <time>2025-08-26T10:56:50.375Z</time>
      </trkpt>
      <trkpt lat="51.778793" lon="7.148298">
        <ele>73.865560</ele>
        <time>2025-08-26T10:56:53.649Z</time>
      </trkpt>
      <trkpt lat="51.778776" lon="7.147819">
        <ele>74.314752</ele>
        <time>2025-08-26T10:56:58.459Z</time>
      </trkpt>
      <trkpt lat="51.778681" lon="7.147947">
        <ele>74.501908</ele>
        <time>2025-08-26T10:57:00.766Z</time>
      </trkpt>
      <trkpt lat="51.778634" lon="7.148021">
        <ele>74.601196</ele>
        <time>2025-08-26T10:57:02.170Z</time>
      </trkpt>
      <trkpt lat="51.778522" lon="7.148061">
        <ele>74.774766</ele>
        <time>2025-08-26T10:57:04.885Z</time>
      </trkpt>
      <trkpt lat="51.778170" lon="7.148164">
        <ele>75.316081</ele>
        <time>2025-08-26T10:57:15.106Z</time>
      </trkpt>
      <trkpt lat="51.778134" lon="7.148174">
        <ele>75.371355</ele>
        <time>2025-08-26T10:57:16.291Z</time>
      </trkpt>
      <trkpt lat="51.777861" lon="7.148247">
        <ele>75.790082</ele>
        <time>2025-08-26T10:57:25.474Z</time>
      </trkpt>
      <trkpt lat="51.777710" lon="7.148294">
        <ele>76.022778</ele>
        <time>2025-08-26T10:57:30.846Z</time>
      </trkpt>
      <trkpt lat="51.777338" lon="7.148376">
        <ele>76.811129</ele>
        <time>2025-08-26T10:57:44.374Z</time>
      </trkpt>
      <trkpt lat="51.776962" lon="7.148393">
        <ele>78.081649</ele>
        <time>2025-08-26T10:57:58.202Z</time>
      </trkpt>
      <trkpt lat="51.775952" lon="7.148090">
        <ele>81.551420</ele>
        <time>2025-08-26T10:58:30.811Z</time>
      </trkpt>
      <trkpt lat="51.775372" lon="7.147971">
        <ele>83.187529</ele>
        <time>2025-08-26T10:58:46.945Z</time>
      </trkpt>
      <trkpt lat="51.773481" lon="7.148313">
        <ele>88.395231</ele>
        <time>2025-08-26T10:59:38.328Z</time>
      </trkpt>
      <trkpt lat="51.773216" lon="7.148326">
        <ele>89.563031</ele>
        <time>2025-08-26T10:59:47.359Z</time>
      </trkpt>
      <trkpt lat="51.772798" lon="7.148299">
        <ele>91.405692</ele>
        <time>2025-08-26T11:00:03.623Z</time>
      </trkpt>
      <trkpt lat="51.771850" lon="7.148102">
        <ele>95.341256</ele>
        <time>2025-08-26T11:00:43.898Z</time>
      </trkpt>
      <trkpt lat="51.771696" lon="7.148109">
        <ele>95.852222</ele>
        <time>2025-08-26T11:00:50.058Z</time>
      </trkpt>
      <trkpt lat="51.771523" lon="7.148191">
        <ele>96.450174</ele>
        <time>2025-08-26T11:00:56.848Z</time>
      </trkpt>
      <trkpt lat="51.771235" lon="7.148444">
        <ele>97.537379</ele>
        <time>2025-08-26T11:01:07.279Z</time>
      </trkpt>
      <trkpt lat="51.770723" lon="7.148992">
        <ele>99.574184</ele>
        <time>2025-08-26T11:01:23.218Z</time>
      </trkpt>
      <trkpt lat="51.770494" lon="7.148495">
        <ele>100.726282</ele>
        <time>2025-08-26T11:01:31.527Z</time>
      </trkpt>
      <trkpt lat="51.770672" lon="7.145352">
        <ele>105.200399</ele>
        <time>2025-08-26T11:02:25.350Z</time>
      </trkpt>
      <trkpt lat="51.770662" lon="7.145034">
        <ele>105.688452</ele>
        <time>2025-08-26T11:02:30.816Z</time>
      </trkpt>
      <trkpt lat="51.770580" lon="7.144481">
        <ele>106.560077</ele>
        <time>2025-08-26T11:02:40.471Z</time>
      </trkpt>
      <trkpt lat="51.770445" lon="7.143844">
        <ele>107.592136</ele>
        <time>2025-08-26T11:02:51.637Z</time>
      </trkpt>
      <trkpt lat="51.770362" lon="7.143557">
        <ele>108.077717</ele>
        <time>2025-08-26T11:02:59.127Z</time>
      </trkpt>
      <trkpt lat="51.769835" lon="7.142308">
        <ele>110.755562</ele>
        <time>2025-08-26T11:03:37.280Z</time>
      </trkpt>
      <trkpt lat="51.769783" lon="7.142185">
        <ele>111.042616</ele>
        <time>2025-08-26T11:03:41.248Z</time>
      </trkpt>
      <trkpt lat="51.769701" lon="7.141470">
        <ele>112.443892</ele>
        <time>2025-08-26T11:04:00.916Z</time>
      </trkpt>
      <trkpt lat="51.769535" lon="7.140641">
        <ele>114.122943</ele>
        <time>2025-08-26T11:04:24.354Z</time>
      </trkpt>
      <trkpt lat="51.769545" lon="7.139751">
        <ele>115.415409</ele>
        <time>2025-08-26T11:04:47.631Z</time>
      </trkpt>
      <trkpt lat="51.769604" lon="7.138233">
        <ele>117.350864</ele>
        <time>2025-08-26T11:05:23.263Z</time>
      </trkpt>
      <trkpt lat="51.769547" lon="7.137707">
        <ele>118.030381</ele>
        <time>2025-08-26T11:05:34.257Z</time>
      </trkpt>
      <trkpt lat="51.769417" lon="7.137130">
        <ele>118.674479</ele>
        <time>2025-08-26T11:05:47.047Z</time>
      </trkpt>
      <trkpt lat="51.769275" lon="7.136026">
        <ele>119.730462</ele>
        <time>2025-08-26T11:06:10.807Z</time>
      </trkpt>
      <trkpt lat="51.769222" lon="7.135306">
        <ele>120.409492</ele>
        <time>2025-08-26T11:06:26.692Z</time>
      </trkpt>
      <trkpt lat="51.769220" lon="7.135223">
        <ele>120.487280</ele>
        <time>2025-08-26T11:06:28.570Z</time>
      </trkpt>
      <trkpt lat="51.769259" lon="7.134814">
        <ele>120.874826</ele>
        <time>2025-08-26T11:06:38.173Z</time>
      </trkpt>
      <trkpt lat="51.769415" lon="7.133940">
        <ele>122.247268</ele>
        <time>2025-08-26T11:07:00.832Z</time>
      </trkpt>
      <trkpt lat="51.769411" lon="7.133660">
        <ele>122.701088</ele>
        <time>2025-08-26T11:07:08.087Z</time>
      </trkpt>
      <trkpt lat="51.769069" lon="7.132584">
        <ele>124.661125</ele>
        <time>2025-08-26T11:07:39.014Z</time>
      </trkpt>
      <trkpt lat="51.768970" lon="7.132359">
        <ele>125.108470</ele>
        <time>2025-08-26T11:07:46.064Z</time>
      </trkpt>
      <trkpt lat="51.767900" lon="7.130863">
        <ele>128.519627</ele>
        <time>2025-08-26T11:08:40.713Z</time>
      </trkpt>
      <trkpt lat="51.767299" lon="7.130317">
        <ele>130.214850</ele>
        <time>2025-08-26T11:09:07.021Z</time>
      </trkpt>
      <trkpt lat="51.766532" lon="7.128838">
        <ele>134.080178</ele>
        <time>2025-08-26T11:09:58.999Z</time>
      </trkpt>
      <trkpt lat="51.766361" lon="7.128342">
        <ele>135.217516</ele>
        <time>2025-08-26T11:10:14.934Z</time>
      </trkpt>
      <trkpt lat="51.766241" lon="7.127771">
        <ele>136.181284</ele>
        <time>2025-08-26T11:10:30.987Z</time>
      </trkpt>
      <trkpt lat="51.766051" lon="7.126572">
        <ele>137.681268</ele>
        <time>2025-08-26T11:11:00.457Z</time>
      </trkpt>
      <trkpt lat="51.765970" lon="7.125767">
        <ele>138.669686</ele>
        <time>2025-08-26T11:11:17.647Z</time>
      </trkpt>
      <trkpt lat="51.765841" lon="7.125298">
        <ele>139.291693</ele>
        <time>2025-08-26T11:11:28.397Z</time>
      </trkpt>
      <trkpt lat="51.765836" lon="7.124650">
        <ele>139.848970</ele>
        <time>2025-08-26T11:11:42.310Z</time>
      </trkpt>
      <trkpt lat="51.766065" lon="7.123879">
        <ele>140.569142</ele>
        <time>2025-08-26T11:12:01.191Z</time>
      </trkpt>
      <trkpt lat="51.766179" lon="7.123175">
        <ele>141.181947</ele>
        <time>2025-08-26T11:12:17.618Z</time>
      </trkpt>
      <trkpt lat="51.766517" lon="7.121039">
        <ele>142.909073</ele>
        <time>2025-08-26T11:13:04.622Z</time>
      </trkpt>
      <trkpt lat="51.766181" lon="7.119589">
        <ele>143.978464</ele>
        <time>2025-08-26T11:13:37.264Z</time>
      </trkpt>
      <trkpt lat="51.765893" lon="7.118690">
        <ele>144.016359</ele>
        <time>2025-08-26T11:13:59.820Z</time>
      </trkpt>
      <trkpt lat="51.765687" lon="7.117967">
        <ele>144.046155</ele>
        <time>2025-08-26T11:14:10.609Z</time>
      </trkpt>
      <trkpt lat="51.765522" lon="7.117325">
        <ele>144.072178</ele>
        <time>2025-08-26T11:14:22.740Z</time>
      </trkpt>
      <trkpt lat="51.765418" lon="7.117103">
        <ele>144.037203</ele>
        <time>2025-08-26T11:14:27.383Z</time>
      </trkpt>
      <trkpt lat="51.765246" lon="7.116834">
        <ele>142.929418</ele>
        <time>2025-08-26T11:14:33.368Z</time>
      </trkpt>
      <trkpt lat="51.764515" lon="7.116145">
        <ele>139.012951</ele>
        <time>2025-08-26T11:14:53.000Z</time>
      </trkpt>
      <trkpt lat="51.764290" lon="7.115979">
        <ele>137.868270</ele>
        <time>2025-08-26T11:14:58.649Z</time>
      </trkpt>
      <trkpt lat="51.764198" lon="7.115841">
        <ele>137.287321</ele>
        <time>2025-08-26T11:15:01.502Z</time>
      </trkpt>
      <trkpt lat="51.763765" lon="7.114695">
        <ele>132.413639</ele>
        <time>2025-08-26T11:15:19.889Z</time>
      </trkpt>
      <trkpt lat="51.763438" lon="7.114068">
        <ele>129.023032</ele>
        <time>2025-08-26T11:15:30.933Z</time>
      </trkpt>
      <trkpt lat="51.762728" lon="7.112880">
        <ele>122.898940</ele>
        <time>2025-08-26T11:15:53.249Z</time>
      </trkpt>
      <trkpt lat="51.762602" lon="7.112657">
        <ele>122.219584</ele>
        <time>2025-08-26T11:15:57.491Z</time>
      </trkpt>
      <trkpt lat="51.762420" lon="7.112109">
        <ele>120.820341</ele>
        <time>2025-08-26T11:16:06.430Z</time>
      </trkpt>
      <trkpt lat="51.762336" lon="7.110482">
        <ele>117.194022</ele>
        <time>2025-08-26T11:16:32.250Z</time>
      </trkpt>
      <trkpt lat="51.762296" lon="7.109259">
        <ele>116.792025</ele>
        <time>2025-08-26T11:16:54.511Z</time>
      </trkpt>
      <trkpt lat="51.762207" lon="7.108576">
        <ele>116.562922</ele>
        <time>2025-08-26T11:17:07.708Z</time>
      </trkpt>
      <trkpt lat="51.762193" lon="7.107846">
        <ele>116.323192</ele>
        <time>2025-08-26T11:17:21.017Z</time>
      </trkpt>
      <trkpt lat="51.760268" lon="7.107898">
        <ele>114.254882</ele>
        <time>2025-08-26T11:17:50.859Z</time>
      </trkpt>
      <trkpt lat="51.759828" lon="7.107919">
        <ele>113.817126</ele>
        <time>2025-08-26T11:17:57.886Z</time>
      </trkpt>
      <trkpt lat="51.759360" lon="7.107847">
        <ele>113.351630</ele>
        <time>2025-08-26T11:18:05.624Z</time>
      </trkpt>
      <trkpt lat="51.758319" lon="7.107687">
        <ele>112.258323</ele>
        <time>2025-08-26T11:18:22.336Z</time>
      </trkpt>
      <trkpt lat="51.757573" lon="7.107475">
        <ele>111.200666</ele>
        <time>2025-08-26T11:18:33.848Z</time>
      </trkpt>
      <trkpt lat="51.754078" lon="7.106837">
        <ele>105.460053</ele>
        <time>2025-08-26T11:19:27.395Z</time>
      </trkpt>
      <trkpt lat="51.753424" lon="7.106728">
        <ele>104.036816</ele>
        <time>2025-08-26T11:19:37.225Z</time>
      </trkpt>
      <trkpt lat="51.753419" lon="7.106858">
        <ele>103.862273</ele>
        <time>2025-08-26T11:19:42.836Z</time>
      </trkpt>
      <trkpt lat="51.751038" lon="7.106806">
        <ele>94.494418</ele>
        <time>2025-08-26T11:20:13.861Z</time>
      </trkpt>
      <trkpt lat="51.748275" lon="7.106855">
        <ele>84.457713</ele>
        <time>2025-08-26T11:20:50.164Z</time>
      </trkpt>
      <trkpt lat="51.748309" lon="7.108715">
        <ele>82.741095</ele>
        <time>2025-08-26T11:21:08.764Z</time>
      </trkpt>
      <trkpt lat="51.748336" lon="7.110326">
        <ele>82.445468</ele>
        <time>2025-08-26T11:21:27.219Z</time>
      </trkpt>
      <trkpt lat="51.746818" lon="7.111501">
        <ele>82.715333</ele>
        <time>2025-08-26T11:21:58.012Z</time>
      </trkpt>
      <trkpt lat="51.746082" lon="7.112040">
        <ele>82.940842</ele>
        <time>2025-08-26T11:22:13.951Z</time>
      </trkpt>
      <trkpt lat="51.745872" lon="7.112163">
        <ele>83.011167</ele>
        <time>2025-08-26T11:22:18.429Z</time>
      </trkpt>
      <trkpt lat="51.745825" lon="7.112178">
        <ele>83.026249</ele>
        <time>2025-08-26T11:22:19.367Z</time>
      </trkpt>
      <trkpt lat="51.744923" lon="7.112444">
        <ele>83.314910</ele>
        <time>2025-08-26T11:22:36.671Z</time>
      </trkpt>
      <trkpt lat="51.744852" lon="7.112509">
        <ele>83.316890</ele>
        <time>2025-08-26T11:22:38.161Z</time>
      </trkpt>
      <trkpt lat="51.744509" lon="7.113159">
        <ele>82.937821</ele>
        <time>2025-08-26T11:22:47.753Z</time>
      </trkpt>
      <trkpt lat="51.744454" lon="7.113226">
        <ele>82.888436</ele>
        <time>2025-08-26T11:22:48.979Z</time>
      </trkpt>
      <trkpt lat="51.744345" lon="7.113338">
        <ele>82.795825</ele>
        <time>2025-08-26T11:22:51.223Z</time>
      </trkpt>
      <trkpt lat="51.744094" lon="7.113473">
        <ele>82.606179</ele>
        <time>2025-08-26T11:22:55.703Z</time>
      </trkpt>
      <trkpt lat="51.743903" lon="7.113519">
        <ele>82.467746</ele>
        <time>2025-08-26T11:22:58.899Z</time>
      </trkpt>
      <trkpt lat="51.743749" lon="7.113516">
        <ele>82.357342</ele>
        <time>2025-08-26T11:23:01.345Z</time>
      </trkpt>
      <trkpt lat="51.743632" lon="7.113590">
        <ele>82.267267</ele>
        <time>2025-08-26T11:23:03.288Z</time>
      </trkpt>
      <trkpt lat="51.743513" lon="7.113724">
        <ele>82.163273</ele>
        <time>2025-08-26T11:23:05.460Z</time>
      </trkpt>
      <trkpt lat="51.743311" lon="7.114078">
        <ele>81.713642</ele>
        <time>2025-08-26T11:23:09.828Z</time>
      </trkpt>
      <trkpt lat="51.743359" lon="7.114513">
        <ele>81.027308</ele>
        <time>2025-08-26T11:23:13.719Z</time>
      </trkpt>
      <trkpt lat="51.743535" lon="7.115284">
        <ele>79.750916</ele>
        <time>2025-08-26T11:23:20.719Z</time>
      </trkpt>
      <trkpt lat="51.743528" lon="7.116701">
        <ele>77.549821</ele>
        <time>2025-08-26T11:23:33.000Z</time>
      </trkpt>
      <trkpt lat="51.742475" lon="7.117432">
        <ele>74.653635</ele>
        <time>2025-08-26T11:23:50.121Z</time>
      </trkpt>
      <trkpt lat="51.742268" lon="7.117727">
        <ele>73.956011</ele>
        <time>2025-08-26T11:23:54.012Z</time>
      </trkpt>
      <trkpt lat="51.741909" lon="7.117974">
        <ele>72.962858</ele>
        <time>2025-08-26T11:23:59.229Z</time>
      </trkpt>
      <trkpt lat="51.741583" lon="7.118297">
        <ele>71.589671</ele>
        <time>2025-08-26T11:24:04.255Z</time>
      </trkpt>
      <trkpt lat="51.741265" lon="7.118716">
        <ele>70.116134</ele>
        <time>2025-08-26T11:24:09.574Z</time>
      </trkpt>
      <trkpt lat="51.741153" lon="7.118897">
        <ele>69.547248</ele>
        <time>2025-08-26T11:24:11.639Z</time>
      </trkpt>
      <trkpt lat="51.740564" lon="7.119661">
        <ele>66.834835</ele>
        <time>2025-08-26T11:24:21.734Z</time>
      </trkpt>
      <trkpt lat="51.740429" lon="7.119789">
        <ele>66.428614</ele>
        <time>2025-08-26T11:24:23.971Z</time>
      </trkpt>
      <trkpt lat="51.739728" lon="7.120229">
        <ele>65.371224</ele>
        <time>2025-08-26T11:24:35.460Z</time>
      </trkpt>
      <trkpt lat="51.739110" lon="7.120760">
        <ele>64.387022</ele>
        <time>2025-08-26T11:24:46.507Z</time>
      </trkpt>
      <trkpt lat="51.738617" lon="7.121046">
        <ele>64.185252</ele>
        <time>2025-08-26T11:24:55.020Z</time>
      </trkpt>
      <trkpt lat="51.738433" lon="7.121100">
        <ele>64.324472</ele>
        <time>2025-08-26T11:24:58.200Z</time>
      </trkpt>
      <trkpt lat="51.738259" lon="7.121101">
        <ele>64.454005</ele>
        <time>2025-08-26T11:25:01.304Z</time>
      </trkpt>
      <trkpt lat="51.738178" lon="7.121053">
        <ele>64.518236</ele>
        <time>2025-08-26T11:25:02.945Z</time>
      </trkpt>
      <trkpt lat="51.737915" lon="7.120719">
        <ele>64.767315</ele>
        <time>2025-08-26T11:25:10.051Z</time>
      </trkpt>
      <trkpt lat="51.737669" lon="7.120537">
        <ele>64.968752</ele>
        <time>2025-08-26T11:25:16.553Z</time>
      </trkpt>
      <trkpt lat="51.737607" lon="7.120526">
        <ele>65.015185</ele>
        <time>2025-08-26T11:25:18.167Z</time>
      </trkpt>
      <trkpt lat="51.737400" lon="7.120586">
        <ele>65.171746</ele>
        <time>2025-08-26T11:25:23.529Z</time>
      </trkpt>
      <trkpt lat="51.736818" lon="7.121263">
        <ele>66.104562</ele>
        <time>2025-08-26T11:25:41.746Z</time>
      </trkpt>
      <trkpt lat="51.736691" lon="7.120907">
        <ele>66.500027</ele>
        <time>2025-08-26T11:25:51.086Z</time>
      </trkpt>
      <trkpt lat="51.736818" lon="7.121263">
        <ele>66.895493</ele>
        <time>2025-08-26T11:26:00.273Z</time>
      </trkpt>
      <trkpt lat="51.736261" lon="7.121500">
        <ele>67.790815</ele>
        <time>2025-08-26T11:26:13.150Z</time>
      </trkpt>
      <trkpt lat="51.735330" lon="7.121316">
        <ele>69.368075</ele>
        <time>2025-08-26T11:26:34.999Z</time>
      </trkpt>
      <trkpt lat="51.735101" lon="7.121355">
        <ele>69.764350</ele>
        <time>2025-08-26T11:26:41.081Z</time>
      </trkpt>
      <trkpt lat="51.734868" lon="7.121557">
        <ele>70.219461</ele>
        <time>2025-08-26T11:26:48.034Z</time>
      </trkpt>
      <trkpt lat="51.734520" lon="7.122097">
        <ele>71.050046</ele>
        <time>2025-08-26T11:27:00.572Z</time>
      </trkpt>
      <trkpt lat="51.734203" lon="7.122504">
        <ele>71.471922</ele>
        <time>2025-08-26T11:27:11.015Z</time>
      </trkpt>
      <trkpt lat="51.733722" lon="7.123087">
        <ele>71.956091</ele>
        <time>2025-08-26T11:27:25.030Z</time>
      </trkpt>
      <trkpt lat="51.733440" lon="7.123287">
        <ele>72.204041</ele>
        <time>2025-08-26T11:27:31.581Z</time>
      </trkpt>
      <trkpt lat="51.732280" lon="7.123686">
        <ele>71.868902</ele>
        <time>2025-08-26T11:27:51.552Z</time>
      </trkpt>
      <trkpt lat="51.731644" lon="7.123025">
        <ele>70.844018</ele>
        <time>2025-08-26T11:28:02.762Z</time>
      </trkpt>
      <trkpt lat="51.730448" lon="7.122469">
        <ele>69.290258</ele>
        <time>2025-08-26T11:28:21.205Z</time>
      </trkpt>
      <trkpt lat="51.728821" lon="7.122131">
        <ele>67.875057</ele>
        <time>2025-08-26T11:28:48.276Z</time>
      </trkpt>
      <trkpt lat="51.728157" lon="7.121990">
        <ele>67.637838</ele>
        <time>2025-08-26T11:29:00.177Z</time>
      </trkpt>
      <trkpt lat="51.727478" lon="7.121856">
        <ele>67.237713</ele>
        <time>2025-08-26T11:29:11.851Z</time>
      </trkpt>
      <trkpt lat="51.727501" lon="7.121938">
        <ele>67.173156</ele>
        <time>2025-08-26T11:29:12.762Z</time>
      </trkpt>
      <trkpt lat="51.727490" lon="7.122025">
        <ele>67.109475</ele>
        <time>2025-08-26T11:29:13.652Z</time>
      </trkpt>
      <trkpt lat="51.727412" lon="7.122065">
        <ele>67.014715</ele>
        <time>2025-08-26T11:29:14.995Z</time>
      </trkpt>
      <trkpt lat="51.727334" lon="7.122109">
        <ele>66.919048</ele>
        <time>2025-08-26T11:29:16.330Z</time>
      </trkpt>
      <trkpt lat="51.727278" lon="7.122019">
        <ele>66.827558</ele>
        <time>2025-08-26T11:29:17.602Z</time>
      </trkpt>
      <trkpt lat="51.726634" lon="7.122114">
        <ele>66.078791</ele>
        <time>2025-08-26T11:29:27.753Z</time>
      </trkpt>
      <trkpt lat="51.725291" lon="7.122535">
        <ele>63.903932</ele>
        <time>2025-08-26T11:29:48.137Z</time>
      </trkpt>
      <trkpt lat="51.725028" lon="7.122611">
        <ele>63.388702</ele>
        <time>2025-08-26T11:29:52.071Z</time>
      </trkpt>
      <trkpt lat="51.724733" lon="7.122640">
        <ele>62.818770</ele>
        <time>2025-08-26T11:29:56.407Z</time>
      </trkpt>
      <trkpt lat="51.724489" lon="7.122604">
        <ele>62.346280</ele>
        <time>2025-08-26T11:29:59.996Z</time>
      </trkpt>
      <trkpt lat="51.724046" lon="7.122449">
        <ele>61.454887</ele>
        <time>2025-08-26T11:30:06.576Z</time>
      </trkpt>
      <trkpt lat="51.722165" lon="7.121397">
        <ele>57.230670</ele>
        <time>2025-08-26T11:30:35.862Z</time>
      </trkpt>
      <trkpt lat="51.721672" lon="7.121260">
        <ele>55.948826</ele>
        <time>2025-08-26T11:30:43.065Z</time>
      </trkpt>
      <trkpt lat="51.721354" lon="7.121295">
        <ele>55.132091</ele>
        <time>2025-08-26T11:30:47.570Z</time>
      </trkpt>
      <trkpt lat="51.720989" lon="7.121480">
        <ele>54.151796</ele>
        <time>2025-08-26T11:30:52.872Z</time>
      </trkpt>
      <trkpt lat="51.720453" lon="7.121832">
        <ele>52.240265</ele>
        <time>2025-08-26T11:31:00.676Z</time>
      </trkpt>
      <trkpt lat="51.718879" lon="7.122501">
        <ele>46.553675</ele>
        <time>2025-08-26T11:31:22.279Z</time>
      </trkpt>
      <trkpt lat="51.718494" lon="7.122739">
        <ele>45.444199</ele>
        <time>2025-08-26T11:31:27.987Z</time>
      </trkpt>
      <trkpt lat="51.718484" lon="7.122837">
        <ele>45.278608</ele>
        <time>2025-08-26T11:31:28.859Z</time>
      </trkpt>
      <trkpt lat="51.718389" lon="7.122840">
        <ele>45.022900</ele>
        <time>2025-08-26T11:31:30.180Z</time>
      </trkpt>
      <trkpt lat="51.718311" lon="7.122841">
        <ele>44.812984</ele>
        <time>2025-08-26T11:31:31.278Z</time>
      </trkpt>
      <trkpt lat="51.718278" lon="7.122805">
        <ele>44.705796</ele>
        <time>2025-08-26T11:31:31.842Z</time>
      </trkpt>
      <trkpt lat="51.717813" lon="7.122905">
        <ele>43.443354</ele>
        <time>2025-08-26T11:31:38.534Z</time>
      </trkpt>
      <trkpt lat="51.716766" lon="7.123366">
        <ele>41.459607</ele>
        <time>2025-08-26T11:31:54.701Z</time>
      </trkpt>
      <trkpt lat="51.716512" lon="7.123477">
        <ele>41.117134</ele>
        <time>2025-08-26T11:32:01.774Z</time>
      </trkpt>
      <trkpt lat="51.716340" lon="7.123563">
        <ele>40.882788</ele>
        <time>2025-08-26T11:32:06.629Z</time>
      </trkpt>
      <trkpt lat="51.716223" lon="7.123624">
        <ele>40.722770</ele>
        <time>2025-08-26T11:32:10.010Z</time>
      </trkpt>
      <trkpt lat="51.715052" lon="7.124210">
        <ele>39.439508</ele>
        <time>2025-08-26T11:32:30.016Z</time>
      </trkpt>
      <trkpt lat="51.713712" lon="7.124932">
        <ele>38.055086</ele>
        <time>2025-08-26T11:32:53.071Z</time>
      </trkpt>
      <trkpt lat="51.712975" lon="7.125318">
        <ele>36.840594</ele>
        <time>2025-08-26T11:33:04.465Z</time>
      </trkpt>
      <trkpt lat="51.711874" lon="7.125880">
        <ele>35.597449</ele>
        <time>2025-08-26T11:33:21.632Z</time>
      </trkpt>
      <trkpt lat="51.710898" lon="7.126380">
        <ele>35.399058</ele>
        <time>2025-08-26T11:33:40.448Z</time>
      </trkpt>
      <trkpt lat="51.710839" lon="7.126410">
        <ele>35.387074</ele>
        <time>2025-08-26T11:33:41.853Z</time>
      </trkpt>
      <trkpt lat="51.710485" lon="7.126611">
        <ele>35.351587</ele>
        <time>2025-08-26T11:33:50.358Z</time>
      </trkpt>
      <trkpt lat="51.709895" lon="7.126878">
        <ele>35.536457</ele>
        <time>2025-08-26T11:34:02.530Z</time>
      </trkpt>
      <trkpt lat="51.708194" lon="7.127523">
        <ele>35.949476</ele>
        <time>2025-08-26T11:34:34.036Z</time>
      </trkpt>
      <trkpt lat="51.707373" lon="7.127832">
        <ele>36.052645</ele>
        <time>2025-08-26T11:34:50.611Z</time>
      </trkpt>
      <trkpt lat="51.705166" lon="7.128661">
        <ele>35.377438</ele>
        <time>2025-08-26T11:35:28.978Z</time>
      </trkpt>
      <trkpt lat="51.705260" lon="7.130128">
        <ele>35.020251</ele>
        <time>2025-08-26T11:35:55.058Z</time>
      </trkpt>
      <trkpt lat="51.705955" lon="7.133441">
        <ele>34.434325</ele>
        <time>2025-08-26T11:36:58.036Z</time>
      </trkpt>
      <trkpt lat="51.706068" lon="7.133996">
        <ele>34.358907</ele>
        <time>2025-08-26T11:37:08.574Z</time>
      </trkpt>
      <trkpt lat="51.705808" lon="7.136908">
        <ele>34.428388</ele>
        <time>2025-08-26T11:37:40.959Z</time>
      </trkpt>
      <trkpt lat="51.705776" lon="7.137244">
        <ele>34.598686</ele>
        <time>2025-08-26T11:37:44.959Z</time>
      </trkpt>
      <trkpt lat="51.705577" lon="7.139356">
        <ele>35.668873</ele>
        <time>2025-08-26T11:38:13.092Z</time>
      </trkpt>
      <trkpt lat="51.705583" lon="7.139487">
        <ele>35.734678</ele>
        <time>2025-08-26T11:38:14.944Z</time>
      </trkpt>
      <trkpt lat="51.705597" lon="7.139616">
        <ele>35.800285</ele>
        <time>2025-08-26T11:38:16.765Z</time>
      </trkpt>
      <trkpt lat="51.705691" lon="7.139903">
        <ele>36.075736</ele>
        <time>2025-08-26T11:38:21.283Z</time>
      </trkpt>
      <trkpt lat="51.705954" lon="7.140291">
        <ele>36.702609</ele>
        <time>2025-08-26T11:38:29.545Z</time>
      </trkpt>
      <trkpt lat="51.705765" lon="7.140626">
        <ele>37.196491</ele>
        <time>2025-08-26T11:38:36.560Z</time>
      </trkpt>
      <trkpt lat="51.705385" lon="7.141187">
        <ele>38.102529</ele>
        <time>2025-08-26T11:38:50.302Z</time>
      </trkpt>
      <trkpt lat="51.705343" lon="7.141248">
        <ele>38.201934</ele>
        <time>2025-08-26T11:38:51.775Z</time>
      </trkpt>
      <trkpt lat="51.704899" lon="7.141907">
        <ele>39.218353</ele>
        <time>2025-08-26T11:39:07.083Z</time>
      </trkpt>
      <trkpt lat="51.704617" lon="7.142271">
        <ele>39.730955</ele>
        <time>2025-08-26T11:39:16.515Z</time>
      </trkpt>
      <trkpt lat="51.704543" lon="7.142360">
        <ele>39.861963</ele>
        <time>2025-08-26T11:39:18.937Z</time>
      </trkpt>
      <trkpt lat="51.704379" lon="7.142524">
        <ele>40.135835</ele>
        <time>2025-08-26T11:39:24.010Z</time>
      </trkpt>
      <trkpt lat="51.703691" lon="7.143117">
        <ele>41.243023</ele>
        <time>2025-08-26T11:39:41.919Z</time>
      </trkpt>
      <trkpt lat="51.703543" lon="7.143207">
        <ele>41.467528</ele>
        <time>2025-08-26T11:39:45.089Z</time>
      </trkpt>
      <trkpt lat="51.703125" lon="7.143268">
        <ele>41.487933</ele>
        <time>2025-08-26T11:39:53.316Z</time>
      </trkpt>
      <trkpt lat="51.702953" lon="7.143443">
        <ele>41.429916</ele>
        <time>2025-08-26T11:39:57.031Z</time>
      </trkpt>
      <trkpt lat="51.702845" lon="7.143664">
        <ele>41.380149</ele>
        <time>2025-08-26T11:40:00.089Z</time>
      </trkpt>
      <trkpt lat="51.702461" lon="7.144511">
        <ele>41.194578</ele>
        <time>2025-08-26T11:40:10.860Z</time>
      </trkpt>
      <trkpt lat="51.702395" lon="7.144648">
        <ele>41.163894</ele>
        <time>2025-08-26T11:40:12.592Z</time>
      </trkpt>
      <trkpt lat="51.701830" lon="7.145877">
        <ele>40.579918</ele>
        <time>2025-08-26T11:40:27.727Z</time>
      </trkpt>
      <trkpt lat="51.701659" lon="7.146091">
        <ele>40.409294</ele>
        <time>2025-08-26T11:40:31.164Z</time>
      </trkpt>
      <trkpt lat="51.701299" lon="7.146350">
        <ele>40.098515</ele>
        <time>2025-08-26T11:40:37.505Z</time>
      </trkpt>
      <trkpt lat="51.701004" lon="7.146388">
        <ele>39.865183</ele>
        <time>2025-08-26T11:40:42.336Z</time>
      </trkpt>
      <trkpt lat="51.700000" lon="7.146404">
        <ele>39.370498</ele>
        <time>2025-08-26T11:40:59.024Z</time>
      </trkpt>
      <trkpt lat="51.698482" lon="7.146428">
        <ele>39.186888</ele>
        <time>2025-08-26T11:41:25.057Z</time>
      </trkpt>
      <trkpt lat="51.697479" lon="7.146446">
        <ele>39.684289</ele>
        <time>2025-08-26T11:41:45.023Z</time>
      </trkpt>
      <trkpt lat="51.696416" lon="7.146704">
        <ele>41.145505</ele>
        <time>2025-08-26T11:42:10.071Z</time>
      </trkpt>
      <trkpt lat="51.696269" lon="7.146748">
        <ele>41.408802</ele>
        <time>2025-08-26T11:42:13.830Z</time>
      </trkpt>
      <trkpt lat="51.696079" lon="7.146802">
        <ele>41.748560</ele>
        <time>2025-08-26T11:42:18.760Z</time>
      </trkpt>
      <trkpt lat="51.695931" lon="7.146834">
        <ele>42.011531</ele>
        <time>2025-08-26T11:42:22.637Z</time>
      </trkpt>
      <trkpt lat="51.694944" lon="7.147131">
        <ele>43.940831</ele>
        <time>2025-08-26T11:42:49.676Z</time>
      </trkpt>
      <trkpt lat="51.694509" lon="7.147192">
        <ele>44.873129</ele>
        <time>2025-08-26T11:43:01.580Z</time>
      </trkpt>
      <trkpt lat="51.694401" lon="7.147208">
        <ele>45.104698</ele>
        <time>2025-08-26T11:43:04.509Z</time>
      </trkpt>
      <trkpt lat="51.694159" lon="7.147160">
        <ele>45.625298</ele>
        <time>2025-08-26T11:43:11.073Z</time>
      </trkpt>
      <trkpt lat="51.692774" lon="7.146720">
        <ele>47.857072</ele>
        <time>2025-08-26T11:43:45.940Z</time>
      </trkpt>
      <trkpt lat="51.692351" lon="7.146590">
        <ele>48.371945</ele>
        <time>2025-08-26T11:43:55.503Z</time>
      </trkpt>
      <trkpt lat="51.691802" lon="7.146519">
        <ele>49.020604</ele>
        <time>2025-08-26T11:44:06.832Z</time>
      </trkpt>
      <trkpt lat="51.691082" lon="7.146511">
        <ele>49.417826</ele>
        <time>2025-08-26T11:44:20.439Z</time>
      </trkpt>
      <trkpt lat="51.690393" lon="7.146548">
        <ele>49.798147</ele>
        <time>2025-08-26T11:44:33.648Z</time>
      </trkpt>
      <trkpt lat="51.690341" lon="7.147263">
        <ele>50.119684</ele>
        <time>2025-08-26T11:44:42.975Z</time>
      </trkpt>
      <trkpt lat="51.690175" lon="7.148080">
        <ele>50.968499</ele>
        <time>2025-08-26T11:44:55.258Z</time>
      </trkpt>
      <trkpt lat="51.690038" lon="7.148455">
        <ele>51.398233</ele>
        <time>2025-08-26T11:45:01.979Z</time>
      </trkpt>
      <trkpt lat="51.689954" lon="7.148641">
        <ele>51.625428</ele>
        <time>2025-08-26T11:45:05.608Z</time>
      </trkpt>
      <trkpt lat="51.689677" lon="7.149089">
        <ele>52.250119</ele>
        <time>2025-08-26T11:45:15.727Z</time>
      </trkpt>
      <trkpt lat="51.689536" lon="7.149269">
        <ele>52.536485</ele>
        <time>2025-08-26T11:45:20.373Z</time>
      </trkpt>
      <trkpt lat="51.689433" lon="7.149402">
        <ele>52.746604</ele>
        <time>2025-08-26T11:45:23.783Z</time>
      </trkpt>
      <trkpt lat="51.689211" lon="7.149629">
        <ele>53.053165</ele>
        <time>2025-08-26T11:45:30.502Z</time>
      </trkpt>
      <trkpt lat="51.688952" lon="7.149836">
        <ele>53.339422</ele>
        <time>2025-08-26T11:45:37.509Z</time>
      </trkpt>
      <trkpt lat="51.688204" lon="7.150256">
        <ele>54.123798</ele>
        <time>2025-08-26T11:45:54.952Z</time>
      </trkpt>
      <trkpt lat="51.687073" lon="7.150890">
        <ele>54.609462</ele>
        <time>2025-08-26T11:46:17.211Z</time>
      </trkpt>
      <trkpt lat="51.685755" lon="7.151623">
        <ele>54.703701</ele>
        <time>2025-08-26T11:46:41.101Z</time>
      </trkpt>
      <trkpt lat="51.685502" lon="7.151808">
        <ele>54.877561</ele>
        <time>2025-08-26T11:46:46.188Z</time>
      </trkpt>
      <trkpt lat="51.685316" lon="7.151966">
        <ele>55.009132</ele>
        <time>2025-08-26T11:46:50.214Z</time>
      </trkpt>
      <trkpt lat="51.685108" lon="7.152196">
        <ele>55.166970</ele>
        <time>2025-08-26T11:46:55.233Z</time>
      </trkpt>
      <trkpt lat="51.684409" lon="7.153195">
        <ele>55.809853</ele>
        <time>2025-08-26T11:47:15.889Z</time>
      </trkpt>
      <trkpt lat="51.684162" lon="7.153464">
        <ele>56.123535</ele>
        <time>2025-08-26T11:47:23.127Z</time>
      </trkpt>
      <trkpt lat="51.683447" lon="7.154001">
        <ele>56.953665</ele>
        <time>2025-08-26T11:47:43.285Z</time>
      </trkpt>
      <trkpt lat="51.682858" lon="7.154388">
        <ele>57.453210</ele>
        <time>2025-08-26T11:47:55.599Z</time>
      </trkpt>
      <trkpt lat="51.682829" lon="7.154268">
        <ele>57.314520</ele>
        <time>2025-08-26T11:47:56.904Z</time>
      </trkpt>
      <trkpt lat="51.682658" lon="7.154377">
        <ele>56.995174</ele>
        <time>2025-08-26T11:47:59.858Z</time>
      </trkpt>
      <trkpt lat="51.682683" lon="7.154499">
        <ele>56.856809</ele>
        <time>2025-08-26T11:48:01.080Z</time>
      </trkpt>
      <trkpt lat="51.682739" lon="7.154754">
        <ele>56.565498</ele>
        <time>2025-08-26T11:48:03.635Z</time>
      </trkpt>
      <trkpt lat="51.682899" lon="7.155532">
        <ele>55.682829</ele>
        <time>2025-08-26T11:48:11.042Z</time>
      </trkpt>
      <trkpt lat="51.682976" lon="7.155782">
        <ele>55.382232</ele>
        <time>2025-08-26T11:48:13.473Z</time>
      </trkpt>
      <trkpt lat="51.683131" lon="7.156029">
        <ele>55.003794</ele>
        <time>2025-08-26T11:48:16.445Z</time>
      </trkpt>
      <trkpt lat="51.683306" lon="7.156157">
        <ele>54.670060</ele>
        <time>2025-08-26T11:48:19.068Z</time>
      </trkpt>
      <trkpt lat="51.683419" lon="7.156183">
        <ele>54.471814</ele>
        <time>2025-08-26T11:48:20.656Z</time>
      </trkpt>
      <trkpt lat="51.683562" lon="7.156149">
        <ele>54.353046</ele>
        <time>2025-08-26T11:48:22.728Z</time>
      </trkpt>
      <trkpt lat="51.684043" lon="7.155776">
        <ele>53.998237</ele>
        <time>2025-08-26T11:48:30.904Z</time>
      </trkpt>
      <trkpt lat="51.684175" lon="7.155743">
        <ele>53.909435</ele>
        <time>2025-08-26T11:48:33.119Z</time>
      </trkpt>
      <trkpt lat="51.684312" lon="7.155768">
        <ele>53.817776</ele>
        <time>2025-08-26T11:48:35.468Z</time>
      </trkpt>
      <trkpt lat="51.684430" lon="7.155837">
        <ele>53.734333</ele>
        <time>2025-08-26T11:48:37.659Z</time>
      </trkpt>
      <trkpt lat="51.684515" lon="7.155913">
        <ele>53.669723</ele>
        <time>2025-08-26T11:48:39.374Z</time>
      </trkpt>
      <trkpt lat="51.684652" lon="7.156163">
        <ele>53.532198</ele>
        <time>2025-08-26T11:48:43.165Z</time>
      </trkpt>
      <trkpt lat="51.684744" lon="7.156546">
        <ele>53.362903</ele>
        <time>2025-08-26T11:48:48.045Z</time>
      </trkpt>
      <trkpt lat="51.684777" lon="7.156728">
        <ele>53.284746</ele>
        <time>2025-08-26T11:48:50.372Z</time>
      </trkpt>
      <trkpt lat="51.684801" lon="7.156858">
        <ele>53.253742</ele>
        <time>2025-08-26T11:48:53.099Z</time>
      </trkpt>
      <trkpt lat="51.684846" lon="7.156993">
        <ele>53.340439</ele>
        <time>2025-08-26T11:48:55.243Z</time>
      </trkpt>
      <trkpt lat="51.684935" lon="7.157123">
        <ele>53.449983</ele>
        <time>2025-08-26T11:48:58.008Z</time>
      </trkpt>
      <trkpt lat="51.685609" lon="7.157750">
        <ele>54.159836</ele>
        <time>2025-08-26T11:49:16.378Z</time>
      </trkpt>
      <trkpt lat="51.685672" lon="7.157838">
        <ele>54.235869</ele>
        <time>2025-08-26T11:49:18.348Z</time>
      </trkpt>
      <trkpt lat="51.683805" lon="7.163587">
        <ele>58.479504</ele>
        <time>2025-08-26T11:51:35.321Z</time>
      </trkpt>
      <trkpt lat="51.683503" lon="7.164518">
        <ele>59.146573</ele>
        <time>2025-08-26T11:51:57.304Z</time>
      </trkpt>
      <trkpt lat="51.683393" lon="7.164863">
        <ele>59.382706</ele>
        <time>2025-08-26T11:52:05.294Z</time>
      </trkpt>
      <trkpt lat="51.682793" lon="7.166746">
        <ele>60.650687</ele>
        <time>2025-08-26T11:52:49.089Z</time>
      </trkpt>
      <trkpt lat="51.682545" lon="7.167640">
        <ele>61.147251</ele>
        <time>2025-08-26T11:53:03.960Z</time>
      </trkpt>
      <trkpt lat="51.681978" lon="7.169285">
        <ele>62.027676</ele>
        <time>2025-08-26T11:53:30.579Z</time>
      </trkpt>
      <trkpt lat="51.681836" lon="7.169724">
        <ele>62.055568</ele>
        <time>2025-08-26T11:53:39.545Z</time>
      </trkpt>
      <trkpt lat="51.681637" lon="7.170341">
        <ele>62.094746</ele>
        <time>2025-08-26T11:53:51.890Z</time>
      </trkpt>
      <trkpt lat="51.681365" lon="7.171109">
        <ele>62.144570</ele>
        <time>2025-08-26T11:54:02.307Z</time>
      </trkpt>
      <trkpt lat="51.681170" lon="7.171712">
        <ele>62.194419</ele>
        <time>2025-08-26T11:54:10.978Z</time>
      </trkpt>
      <trkpt lat="51.680449" lon="7.174196">
        <ele>64.097872</ele>
        <time>2025-08-26T11:54:53.800Z</time>
      </trkpt>
      <trkpt lat="51.680964" lon="7.174761">
        <ele>64.487066</ele>
        <time>2025-08-26T11:55:14.553Z</time>
      </trkpt>
      <trkpt lat="51.681331" lon="7.175032">
        <ele>64.706950</ele>
        <time>2025-08-26T11:55:27.368Z</time>
      </trkpt>
      <trkpt lat="51.681353" lon="7.175591">
        <ele>64.896142</ele>
        <time>2025-08-26T11:55:34.546Z</time>
      </trkpt>
      <trkpt lat="51.681335" lon="7.175772">
        <ele>64.958059</ele>
        <time>2025-08-26T11:55:36.876Z</time>
      </trkpt>
      <trkpt lat="51.681160" lon="7.176310">
        <ele>65.163266</ele>
        <time>2025-08-26T11:55:44.594Z</time>
      </trkpt>
      <trkpt lat="51.681127" lon="7.176498">
        <ele>65.242097</ele>
        <time>2025-08-26T11:55:47.066Z</time>
      </trkpt>
      <trkpt lat="51.680842" lon="7.178643">
        <ele>66.157944</ele>
        <time>2025-08-26T11:56:15.470Z</time>
      </trkpt>
      <trkpt lat="51.680842" lon="7.179186">
        <ele>66.384641</ele>
        <time>2025-08-26T11:56:23.887Z</time>
      </trkpt>
      <trkpt lat="51.680655" lon="7.180897">
        <ele>69.443371</ele>
        <time>2025-08-26T11:56:56.739Z</time>
      </trkpt>
      <trkpt lat="51.680628" lon="7.181304">
        <ele>70.165007</ele>
        <time>2025-08-26T11:57:05.655Z</time>
      </trkpt>
      <trkpt lat="51.680583" lon="7.181495">
        <ele>70.525230</ele>
        <time>2025-08-26T11:57:10.000Z</time>
      </trkpt>
      <trkpt lat="51.680520" lon="7.181623">
        <ele>70.813348</ele>
        <time>2025-08-26T11:57:13.229Z</time>
      </trkpt>
      <trkpt lat="51.680479" lon="7.182031">
        <ele>71.543390</ele>
        <time>2025-08-26T11:57:21.529Z</time>
      </trkpt>
      <trkpt lat="51.680488" lon="7.182215">
        <ele>71.879270</ele>
        <time>2025-08-26T11:57:25.232Z</time>
      </trkpt>
      <trkpt lat="51.680479" lon="7.182329">
        <ele>72.088400</ele>
        <time>2025-08-26T11:57:27.818Z</time>
      </trkpt>
      <trkpt lat="51.680398" lon="7.182308">
        <ele>72.329180</ele>
        <time>2025-08-26T11:57:30.479Z</time>
      </trkpt>
      <trkpt lat="51.680408" lon="7.182453">
        <ele>72.594677</ele>
        <time>2025-08-26T11:57:33.220Z</time>
      </trkpt>
      <trkpt lat="51.680427" lon="7.182547">
        <ele>72.774596</ele>
        <time>2025-08-26T11:57:35.244Z</time>
      </trkpt>
      <trkpt lat="51.680744" lon="7.183510">
        <ele>74.758696</ele>
        <time>2025-08-26T11:57:57.074Z</time>
      </trkpt>
      <trkpt lat="51.681105" lon="7.184498">
        <ele>76.850611</ele>
        <time>2025-08-26T11:58:17.405Z</time>
      </trkpt>
      <trkpt lat="51.681462" lon="7.185337">
        <ele>78.842153</ele>
        <time>2025-08-26T11:58:36.586Z</time>
      </trkpt>
      <trkpt lat="51.682903" lon="7.188876">
        <ele>87.187587</ele>
        <time>2025-08-26T12:00:05.840Z</time>
      </trkpt>
      <trkpt lat="51.683668" lon="7.190912">
        <ele>90.423727</ele>
        <time>2025-08-26T12:00:46.890Z</time>
      </trkpt>
      <trkpt lat="51.684167" lon="7.192266">
        <ele>92.263438</ele>
        <time>2025-08-26T12:01:11.689Z</time>
      </trkpt>
      <trkpt lat="51.685417" lon="7.195628">
        <ele>96.960337</ele>
        <time>2025-08-26T12:02:18.450Z</time>
      </trkpt>
      <trkpt lat="51.685684" lon="7.196257">
        <ele>97.952606</ele>
        <time>2025-08-26T12:02:32.148Z</time>
      </trkpt>
      <trkpt lat="51.685883" lon="7.196565">
        <ele>98.531652</ele>
        <time>2025-08-26T12:02:40.222Z</time>
      </trkpt>
      <trkpt lat="51.687557" lon="7.198877">
        <ele>102.695008</ele>
        <time>2025-08-26T12:03:44.016Z</time>
      </trkpt>
      <trkpt lat="51.688076" lon="7.199595">
        <ele>102.725336</ele>
        <time>2025-08-26T12:03:59.023Z</time>
      </trkpt>
      <trkpt lat="51.688674" lon="7.200441">
        <ele>102.756819</ele>
        <time>2025-08-26T12:04:13.024Z</time>
      </trkpt>
      <trkpt lat="51.689631" lon="7.201802">
        <ele>101.021549</ele>
        <time>2025-08-26T12:04:33.845Z</time>
      </trkpt>
      <trkpt lat="51.690591" lon="7.203120">
        <ele>101.907260</ele>
        <time>2025-08-26T12:04:58.864Z</time>
      </trkpt>
      <trkpt lat="51.692736" lon="7.206062">
        <ele>110.703682</ele>
        <time>2025-08-26T12:06:36.977Z</time>
      </trkpt>
      <trkpt lat="51.692973" lon="7.206387">
        <ele>111.531886</ele>
        <time>2025-08-26T12:06:48.155Z</time>
      </trkpt>
      <trkpt lat="51.694325" lon="7.208255">
        <ele>115.288872</ele>
        <time>2025-08-26T12:07:40.345Z</time>
      </trkpt>
      <trkpt lat="51.694431" lon="7.208402">
        <ele>115.250686</ele>
        <time>2025-08-26T12:07:43.152Z</time>
      </trkpt>
      <trkpt lat="51.695746" lon="7.210241">
        <ele>114.533289</ele>
        <time>2025-08-26T12:08:14.115Z</time>
      </trkpt>
      <trkpt lat="51.697018" lon="7.211943">
        <ele>112.584938</ele>
        <time>2025-08-26T12:08:44.140Z</time>
      </trkpt>
      <trkpt lat="51.696947" lon="7.212075">
        <ele>112.305396</ele>
        <time>2025-08-26T12:08:46.947Z</time>
      </trkpt>
      <trkpt lat="51.695695" lon="7.214546">
        <ele>107.925336</ele>
        <time>2025-08-26T12:09:35.754Z</time>
      </trkpt>
      <trkpt lat="51.695387" lon="7.215219">
        <ele>107.379403</ele>
        <time>2025-08-26T12:09:50.626Z</time>
      </trkpt>
      <trkpt lat="51.695177" lon="7.215671">
        <ele>107.010769</ele>
        <time>2025-08-26T12:10:01.253Z</time>
      </trkpt>
      <trkpt lat="51.694796" lon="7.216356">
        <ele>106.368267</ele>
        <time>2025-08-26T12:10:19.157Z</time>
      </trkpt>
      <trkpt lat="51.694728" lon="7.216395">
        <ele>106.265977</ele>
        <time>2025-08-26T12:10:21.420Z</time>
      </trkpt>
      <trkpt lat="51.692801" lon="7.217501">
        <ele>102.799412</ele>
        <time>2025-08-26T12:11:15.278Z</time>
      </trkpt>
      <trkpt lat="51.691082" lon="7.218350">
        <ele>98.074951</ele>
        <time>2025-08-26T12:11:59.672Z</time>
      </trkpt>
      <trkpt lat="51.690534" lon="7.218626">
        <ele>96.743669</ele>
        <time>2025-08-26T12:12:14.180Z</time>
      </trkpt>
      <trkpt lat="51.689481" lon="7.219148">
        <ele>94.573419</ele>
        <time>2025-08-26T12:12:43.239Z</time>
      </trkpt>
      <trkpt lat="51.684774" lon="7.221463">
        <ele>89.096560</ele>
        <time>2025-08-26T12:14:59.198Z</time>
      </trkpt>
      <trkpt lat="51.683758" lon="7.222003">
        <ele>87.104305</ele>
        <time>2025-08-26T12:15:26.875Z</time>
      </trkpt>
      <trkpt lat="51.683063" lon="7.222372">
        <ele>85.650726</ele>
        <time>2025-08-26T12:15:45.802Z</time>
      </trkpt>
      <trkpt lat="51.681621" lon="7.223092">
        <ele>82.494455</ele>
        <time>2025-08-26T12:16:25.197Z</time>
      </trkpt>
      <trkpt lat="51.680802" lon="7.223501">
        <ele>81.183515</ele>
        <time>2025-08-26T12:16:46.945Z</time>
      </trkpt>
      <trkpt lat="51.680273" lon="7.223765">
        <ele>80.690531</ele>
        <time>2025-08-26T12:17:01.403Z</time>
      </trkpt>
      <trkpt lat="51.679673" lon="7.224062">
        <ele>80.131776</ele>
        <time>2025-08-26T12:17:19.690Z</time>
      </trkpt>
      <trkpt lat="51.679544" lon="7.224124">
        <ele>80.011940</ele>
        <time>2025-08-26T12:17:24.194Z</time>
      </trkpt>
      <trkpt lat="51.679308" lon="7.224248">
        <ele>80.369896</ele>
        <time>2025-08-26T12:17:32.975Z</time>
      </trkpt>
      <trkpt lat="51.679122" lon="7.224336">
        <ele>80.851682</ele>
        <time>2025-08-26T12:17:40.241Z</time>
      </trkpt>
      <trkpt lat="51.676153" lon="7.225746">
        <ele>89.308284</ele>
        <time>2025-08-26T12:19:48.710Z</time>
      </trkpt>
      <trkpt lat="51.675865" lon="7.225851">
        <ele>90.172714</ele>
        <time>2025-08-26T12:20:00.986Z</time>
      </trkpt>
      <trkpt lat="51.671676" lon="7.226575">
        <ele>102.016591</ele>
        <time>2025-08-26T12:22:54.812Z</time>
      </trkpt>
      <trkpt lat="51.670535" lon="7.226769">
        <ele>104.764016</ele>
        <time>2025-08-26T12:23:38.116Z</time>
      </trkpt>
      <trkpt lat="51.669933" lon="7.226860">
        <ele>106.156975</ele>
        <time>2025-08-26T12:24:01.086Z</time>
      </trkpt>
      <trkpt lat="51.669534" lon="7.226863">
        <ele>107.076195</ele>
        <time>2025-08-26T12:24:16.772Z</time>
      </trkpt>
      <trkpt lat="51.669491" lon="7.226848">
        <ele>107.177550</ele>
        <time>2025-08-26T12:24:18.460Z</time>
      </trkpt>
      <trkpt lat="51.669455" lon="7.226873">
        <ele>107.267851</ele>
        <time>2025-08-26T12:24:20.030Z</time>
      </trkpt>
      <trkpt lat="51.668115" lon="7.228191">
        <ele>110.041603</ele>
        <time>2025-08-26T12:25:21.997Z</time>
      </trkpt>
      <trkpt lat="51.666851" lon="7.229409">
        <ele>109.886781</ele>
        <time>2025-08-26T12:26:07.635Z</time>
      </trkpt>
      <trkpt lat="51.666092" lon="7.230165">
        <ele>108.064742</ele>
        <time>2025-08-26T12:26:30.071Z</time>
      </trkpt>
      <trkpt lat="51.666023" lon="7.230234">
        <ele>107.898920</ele>
        <time>2025-08-26T12:26:32.023Z</time>
      </trkpt>
      <trkpt lat="51.665664" lon="7.230592">
        <ele>106.156602</ele>
        <time>2025-08-26T12:26:39.470Z</time>
      </trkpt>
      <trkpt lat="51.665545" lon="7.230687">
        <ele>105.420352</ele>
        <time>2025-08-26T12:26:41.766Z</time>
      </trkpt>
      <trkpt lat="51.664936" lon="7.231242">
        <ele>101.541652</ele>
        <time>2025-08-26T12:26:53.520Z</time>
      </trkpt>
      <trkpt lat="51.664278" lon="7.231847">
        <ele>97.500059</ele>
        <time>2025-08-26T12:27:06.319Z</time>
      </trkpt>
      <trkpt lat="51.664153" lon="7.231985">
        <ele>97.223942</ele>
        <time>2025-08-26T12:27:08.972Z</time>
      </trkpt>
      <trkpt lat="51.663886" lon="7.232184">
        <ele>96.687830</ele>
        <time>2025-08-26T12:27:14.272Z</time>
      </trkpt>
      <trkpt lat="51.663618" lon="7.232283">
        <ele>96.186722</ele>
        <time>2025-08-26T12:27:19.517Z</time>
      </trkpt>
      <trkpt lat="51.663538" lon="7.232291">
        <ele>96.040636</ele>
        <time>2025-08-26T12:27:20.683Z</time>
      </trkpt>
      <trkpt lat="51.663292" lon="7.232314">
        <ele>95.591530</ele>
        <time>2025-08-26T12:27:24.465Z</time>
      </trkpt>
      <trkpt lat="51.662393" lon="7.232402">
        <ele>94.429277</ele>
        <time>2025-08-26T12:27:43.251Z</time>
      </trkpt>
      <trkpt lat="51.661629" lon="7.232470">
        <ele>94.947650</ele>
        <time>2025-08-26T12:28:02.075Z</time>
      </trkpt>
      <trkpt lat="51.660368" lon="7.232610">
        <ele>95.163630</ele>
        <time>2025-08-26T12:28:24.589Z</time>
      </trkpt>
      <trkpt lat="51.659542" lon="7.233022">
        <ele>94.438069</ele>
        <time>2025-08-26T12:28:37.943Z</time>
      </trkpt>
      <trkpt lat="51.658304" lon="7.233738">
        <ele>93.807571</ele>
        <time>2025-08-26T12:28:58.946Z</time>
      </trkpt>
      <trkpt lat="51.658251" lon="7.233767">
        <ele>93.793568</ele>
        <time>2025-08-26T12:28:59.923Z</time>
      </trkpt>
      <trkpt lat="51.657740" lon="7.234089">
        <ele>93.656300</ele>
        <time>2025-08-26T12:29:09.924Z</time>
      </trkpt>
      <trkpt lat="51.657643" lon="7.234259">
        <ele>93.620451</ele>
        <time>2025-08-26T12:29:12.699Z</time>
      </trkpt>
      <trkpt lat="51.657600" lon="7.234472">
        <ele>93.585685</ele>
        <time>2025-08-26T12:29:15.448Z</time>
      </trkpt>
      <trkpt lat="51.657602" lon="7.234621">
        <ele>93.562554</ele>
        <time>2025-08-26T12:29:17.293Z</time>
      </trkpt>
      <trkpt lat="51.657284" lon="7.236131">
        <ele>94.564682</ele>
        <time>2025-08-26T12:29:38.263Z</time>
      </trkpt>
      <trkpt lat="51.657239" lon="7.236497">
        <ele>94.803926</ele>
        <time>2025-08-26T12:29:43.594Z</time>
      </trkpt>
      <trkpt lat="51.657237" lon="7.236732">
        <ele>94.954623</ele>
        <time>2025-08-26T12:29:46.994Z</time>
      </trkpt>
      <trkpt lat="51.657344" lon="7.238004">
        <ele>95.977028</ele>
        <time>2025-08-26T12:30:05.684Z</time>
      </trkpt>
      <trkpt lat="51.657345" lon="7.238007">
        <ele>95.980421</ele>
        <time>2025-08-26T12:30:05.736Z</time>
      </trkpt>
      <trkpt lat="51.657459" lon="7.239073">
        <ele>97.058016</ele>
        <time>2025-08-26T12:30:21.406Z</time>
      </trkpt>
      <trkpt lat="51.657539" lon="7.239880">
        <ele>97.872135</ele>
        <time>2025-08-26T12:30:34.310Z</time>
      </trkpt>
      <trkpt lat="51.657558" lon="7.240076">
        <ele>98.069756</ele>
        <time>2025-08-26T12:30:37.480Z</time>
      </trkpt>
      <trkpt lat="51.657617" lon="7.240658">
        <ele>98.531023</ele>
        <time>2025-08-26T12:30:46.798Z</time>
      </trkpt>
      <trkpt lat="51.657682" lon="7.240937">
        <ele>98.721257</ele>
        <time>2025-08-26T12:30:51.437Z</time>
      </trkpt>
      <trkpt lat="51.657808" lon="7.241275">
        <ele>98.972962</ele>
        <time>2025-08-26T12:30:57.281Z</time>
      </trkpt>
      <trkpt lat="51.658248" lon="7.242460">
        <ele>99.854492</ele>
        <time>2025-08-26T12:31:16.067Z</time>
      </trkpt>
      <trkpt lat="51.658272" lon="7.242513">
        <ele>99.896377</ele>
        <time>2025-08-26T12:31:16.860Z</time>
      </trkpt>
      <trkpt lat="51.658334" lon="7.242680">
        <ele>100.020604</ele>
        <time>2025-08-26T12:31:19.112Z</time>
      </trkpt>
      <trkpt lat="51.659220" lon="7.245088">
        <ele>100.497939</ele>
        <time>2025-08-26T12:31:48.253Z</time>
      </trkpt>
      <trkpt lat="51.659307" lon="7.245313">
        <ele>100.532925</ele>
        <time>2025-08-26T12:31:52.150Z</time>
      </trkpt>
      <trkpt lat="51.659465" lon="7.245665">
        <ele>101.562454</ele>
        <time>2025-08-26T12:31:59.492Z</time>
      </trkpt>
      <trkpt lat="51.659655" lon="7.246272">
        <ele>103.361081</ele>
        <time>2025-08-26T12:32:13.369Z</time>
      </trkpt>
      <trkpt lat="51.659702" lon="7.246518">
        <ele>104.042024</ele>
        <time>2025-08-26T12:32:19.341Z</time>
      </trkpt>
      <trkpt lat="51.659894" lon="7.248096">
        <ele>108.209618</ele>
        <time>2025-08-26T12:33:00.309Z</time>
      </trkpt>
      <trkpt lat="51.659928" lon="7.248667">
        <ele>108.209618</ele>
        <time>2025-08-26T12:33:13.874Z</time>
      </trkpt>
      <trkpt lat="51.659863" lon="7.249267">
        <ele>108.209618</ele>
        <time>2025-08-26T12:33:26.233Z</time>
      </trkpt>
      <trkpt lat="51.659762" lon="7.249829">
        <ele>108.209618</ele>
        <time>2025-08-26T12:33:36.235Z</time>
      </trkpt>
      <trkpt lat="51.659682" lon="7.250107">
        <ele>108.209618</ele>
        <time>2025-08-26T12:33:40.794Z</time>
      </trkpt>
      <trkpt lat="51.659596" lon="7.250232">
        <ele>108.209618</ele>
        <time>2025-08-26T12:33:43.339Z</time>
      </trkpt>
      <trkpt lat="51.658911" lon="7.250751">
        <ele>108.209618</ele>
        <time>2025-08-26T12:33:58.007Z</time>
      </trkpt>
      <trkpt lat="51.658706" lon="7.250926">
        <ele>108.209618</ele>
        <time>2025-08-26T12:34:02.333Z</time>
      </trkpt>
      <trkpt lat="51.658637" lon="7.251055">
        <ele>108.209618</ele>
        <time>2025-08-26T12:34:04.179Z</time>
      </trkpt>
    </trkseg>
  </trk>
</gpx>